BAW16A YSSY-WSSS
Flight info
| Callsign | BAW16A |
|---|---|
| Flight time | 6h 51m |
| Altitude | 36000 |
| Route | KADOM1 KADOM A576 PKS G222 JUGGL/N0482F380 G222 SAPDA A585 PLB G579 SJ DCT |
| Aircraft | B77W/H-SDE1E3FGHIJ3J4J5J6M1M2P2RWXYZ/LB1D1 |
Departure
| Time | 2026-04-26 12:36 |
|---|---|
| Airport | Sydney Kingsford Smith International Airport (YSSY) |
Arrival
| Time | 2026-04-26 19:27 |
|---|---|
| Airport | Singapore Changi Airport (WSSS) |
| Time | Latitude | Longitude | Altitude | Speed | Heading |
|---|---|---|---|---|---|
| 2026-04-26 12:08 | -33.94062 | 151.16385 | 35 ft | 0 kts | 43° |
| 2026-04-26 12:22 | -33.94070 | 151.16376 | 34 ft | 2 kts | 43° |
| 2026-04-26 12:22 | -33.94081 | 151.16363 | 34 ft | 2 kts | 43° |
| 2026-04-26 12:22 | -33.94092 | 151.16351 | 34 ft | 2 kts | 43° |
| 2026-04-26 12:23 | -33.94103 | 151.16339 | 34 ft | 2 kts | 43° |
| 2026-04-26 12:23 | -33.94114 | 151.16327 | 34 ft | 2 kts | 38° |
| 2026-04-26 12:23 | -33.94127 | 151.16318 | 34 ft | 2 kts | 26° |
| 2026-04-26 12:23 | -33.94140 | 151.16310 | 34 ft | 2 kts | 17° |
| 2026-04-26 12:24 | -33.94154 | 151.16307 | 34 ft | 2 kts | 7° |
| 2026-04-26 12:24 | -33.94169 | 151.16306 | 34 ft | 2 kts | 358° |
| 2026-04-26 12:24 | -33.94184 | 151.16307 | 34 ft | 2 kts | 348° |
| 2026-04-26 12:25 | -33.94206 | 151.16315 | 34 ft | 0 kts | 340° |
| 2026-04-26 12:26 | -33.94205 | 151.16315 | 34 ft | 0 kts | 340° |
| 2026-04-26 12:26 | -33.94189 | 151.16309 | 34 ft | 5 kts | 341° |
| 2026-04-26 12:27 | -33.94157 | 151.16296 | 34 ft | 3 kts | 354° |
| 2026-04-26 12:27 | -33.94140 | 151.16307 | 34 ft | 3 kts | 58° |
| 2026-04-26 12:27 | -33.94141 | 151.16341 | 34 ft | 5 kts | 101° |
| 2026-04-26 12:27 | -33.94151 | 151.16399 | 34 ft | 9 kts | 97° |
| 2026-04-26 12:28 | -33.94143 | 151.16489 | 34 ft | 12 kts | 76° |
| 2026-04-26 12:28 | -33.94118 | 151.16602 | 34 ft | 15 kts | 74° |
| 2026-04-26 12:28 | -33.94088 | 151.16727 | 34 ft | 15 kts | 74° |
| 2026-04-26 12:28 | -33.94062 | 151.16843 | 34 ft | 13 kts | 75° |
| 2026-04-26 12:29 | -33.94037 | 151.16948 | 34 ft | 12 kts | 74° |
| 2026-04-26 12:29 | -33.94014 | 151.17041 | 34 ft | 11 kts | 74° |
| 2026-04-26 12:29 | -33.94002 | 151.17219 | 34 ft | 10 kts | 139° |
| 2026-04-26 12:30 | -33.94076 | 151.17252 | 34 ft | 12 kts | 167° |
| 2026-04-26 12:30 | -33.94175 | 151.17278 | 34 ft | 16 kts | 168° |
| 2026-04-26 12:30 | -33.94293 | 151.17308 | 34 ft | 18 kts | 168° |
| 2026-04-26 12:31 | -33.94583 | 151.17384 | 34 ft | 23 kts | 168° |
| 2026-04-26 12:31 | -33.94750 | 151.17429 | 34 ft | 25 kts | 167° |
| 2026-04-26 12:31 | -33.94929 | 151.17476 | 34 ft | 27 kts | 168° |
| 2026-04-26 12:31 | -33.95124 | 151.17525 | 34 ft | 29 kts | 168° |
| 2026-04-26 12:32 | -33.95335 | 151.17580 | 34 ft | 31 kts | 167° |
| 2026-04-26 12:32 | -33.95541 | 151.17633 | 34 ft | 29 kts | 168° |
| 2026-04-26 12:32 | -33.95913 | 151.17731 | 34 ft | 25 kts | 168° |
| 2026-04-26 12:33 | -33.96076 | 151.17772 | 34 ft | 22 kts | 168° |
| 2026-04-26 12:33 | -33.96225 | 151.17810 | 34 ft | 21 kts | 168° |
| 2026-04-26 12:33 | -33.96363 | 151.17845 | 34 ft | 17 kts | 167° |
| 2026-04-26 12:33 | -33.96430 | 151.17918 | 34 ft | 13 kts | 94° |
| 2026-04-26 12:34 | -33.96418 | 151.18015 | 34 ft | 10 kts | 66° |
| 2026-04-26 12:34 | -33.96376 | 151.18051 | 34 ft | 4 kts | 1° |
| 2026-04-26 12:34 | -33.96357 | 151.18047 | 34 ft | 0 kts | 348° |
| 2026-04-26 12:35 | -33.96355 | 151.18047 | 34 ft | 2 kts | 348° |
| 2026-04-26 12:35 | -33.96182 | 151.18004 | 34 ft | 57 kts | 348° |
| 2026-04-26 12:35 | -33.95566 | 151.17844 | 35 ft | 119 kts | 347° |
| 2026-04-26 12:35 | -33.94564 | 151.17581 | 36 ft | 171 kts | 348° |
| 2026-04-26 12:36 | -33.93291 | 151.17255 | 272 ft | 195 kts | 349° |
| 2026-04-26 12:36 | -33.91970 | 151.16907 | 1162 ft | 192 kts | 349° |
| 2026-04-26 12:36 | -33.90684 | 151.16515 | 1790 ft | 195 kts | 338° |
| 2026-04-26 12:36 | -33.89535 | 151.15503 | 2065 ft | 216 kts | 318° |
| 2026-04-26 12:37 | -33.88447 | 151.14140 | 2436 ft | 232 kts | 316° |
| 2026-04-26 12:37 | -33.87293 | 151.12672 | 2857 ft | 248 kts | 315° |
| 2026-04-26 12:37 | -33.86078 | 151.11127 | 3454 ft | 257 kts | 315° |
| 2026-04-26 12:38 | -33.83591 | 151.07958 | 4795 ft | 266 kts | 314° |
| 2026-04-26 12:38 | -33.82314 | 151.06332 | 5442 ft | 271 kts | 314° |
| 2026-04-26 12:38 | -33.80990 | 151.04646 | 6075 ft | 276 kts | 314° |
| 2026-04-26 12:38 | -33.79669 | 151.02966 | 6715 ft | 280 kts | 314° |
| 2026-04-26 12:39 | -33.78342 | 151.01279 | 7439 ft | 280 kts | 314° |
| 2026-04-26 12:39 | -33.76992 | 150.99562 | 8105 ft | 282 kts | 315° |
| 2026-04-26 12:39 | -33.75648 | 150.97855 | 8739 ft | 285 kts | 315° |
| 2026-04-26 12:39 | -33.74284 | 150.96121 | 9356 ft | 287 kts | 315° |
| 2026-04-26 12:40 | -33.72906 | 150.94373 | 9979 ft | 289 kts | 315° |
| 2026-04-26 12:40 | -33.71497 | 150.92584 | 10413 ft | 300 kts | 315° |
| 2026-04-26 12:40 | -33.70021 | 150.90715 | 10659 ft | 316 kts | 314° |
| 2026-04-26 12:40 | -33.68486 | 150.88771 | 10927 ft | 331 kts | 314° |
| 2026-04-26 12:41 | -33.66864 | 150.86717 | 11232 ft | 346 kts | 314° |
| 2026-04-26 12:41 | -33.65155 | 150.84554 | 11550 ft | 361 kts | 314° |
| 2026-04-26 12:41 | -33.63359 | 150.82280 | 11898 ft | 375 kts | 314° |
| 2026-04-26 12:41 | -33.61516 | 150.79947 | 12284 ft | 388 kts | 314° |
| 2026-04-26 12:42 | -33.59703 | 150.77530 | 12870 ft | 395 kts | 308° |
| 2026-04-26 12:42 | -33.58138 | 150.74806 | 13566 ft | 400 kts | 303° |
| 2026-04-26 12:42 | -33.56605 | 150.71989 | 14304 ft | 404 kts | 303° |
| 2026-04-26 12:42 | -33.55060 | 150.69148 | 15046 ft | 410 kts | 304° |
| 2026-04-26 12:43 | -33.53497 | 150.66277 | 15831 ft | 415 kts | 304° |
| 2026-04-26 12:43 | -33.51917 | 150.63377 | 16613 ft | 419 kts | 304° |
| 2026-04-26 12:43 | -33.50320 | 150.60452 | 17342 ft | 424 kts | 304° |
| 2026-04-26 12:43 | -33.48676 | 150.57443 | 18088 ft | 429 kts | 304° |
| 2026-04-26 12:44 | -33.47037 | 150.54446 | 18789 ft | 434 kts | 304° |
| 2026-04-26 12:44 | -33.45368 | 150.51398 | 19507 ft | 439 kts | 304° |
| 2026-04-26 12:44 | -33.43694 | 150.48343 | 20223 ft | 443 kts | 304° |
| 2026-04-26 12:44 | -33.42020 | 150.45291 | 20904 ft | 447 kts | 304° |
| 2026-04-26 12:45 | -33.40302 | 150.42160 | 21575 ft | 451 kts | 304° |
| 2026-04-26 12:45 | -33.38564 | 150.38995 | 22234 ft | 455 kts | 304° |
| 2026-04-26 12:45 | -33.36830 | 150.35844 | 22867 ft | 459 kts | 304° |
| 2026-04-26 12:45 | -33.35083 | 150.32669 | 23479 ft | 462 kts | 304° |
| 2026-04-26 12:46 | -33.33294 | 150.29421 | 24058 ft | 467 kts | 304° |
| 2026-04-26 12:46 | -33.31518 | 150.26199 | 24606 ft | 471 kts | 304° |
| 2026-04-26 12:46 | -33.29702 | 150.22910 | 25145 ft | 476 kts | 304° |
| 2026-04-26 12:46 | -33.27880 | 150.19609 | 25698 ft | 480 kts | 304° |
| 2026-04-26 12:47 | -33.26032 | 150.16267 | 26224 ft | 484 kts | 304° |
| 2026-04-26 12:47 | -33.24177 | 150.12913 | 26747 ft | 488 kts | 304° |
| 2026-04-26 12:47 | -33.22299 | 150.09523 | 27269 ft | 493 kts | 304° |
| 2026-04-26 12:47 | -33.20405 | 150.06105 | 27802 ft | 496 kts | 304° |
| 2026-04-26 12:48 | -33.18477 | 150.02631 | 28366 ft | 499 kts | 304° |
| 2026-04-26 12:48 | -33.16520 | 149.99107 | 28909 ft | 503 kts | 304° |
| 2026-04-26 12:48 | -33.14583 | 149.95622 | 29426 ft | 507 kts | 304° |
| 2026-04-26 12:48 | -33.12606 | 149.92068 | 30017 ft | 508 kts | 304° |
| 2026-04-26 12:49 | -33.10659 | 149.88573 | 30721 ft | 507 kts | 304° |
| 2026-04-26 12:49 | -33.08730 | 149.85112 | 31471 ft | 504 kts | 303° |
| 2026-04-26 12:49 | -33.06805 | 149.81662 | 32143 ft | 502 kts | 303° |
| 2026-04-26 12:49 | -33.04864 | 149.78186 | 32760 ft | 500 kts | 303° |
| 2026-04-26 12:50 | -33.02931 | 149.74728 | 33352 ft | 499 kts | 303° |
| 2026-04-26 12:50 | -33.01035 | 149.71341 | 33909 ft | 498 kts | 302° |
| 2026-04-26 12:50 | -32.99113 | 149.67909 | 34537 ft | 496 kts | 302° |
| 2026-04-26 12:50 | -32.97210 | 149.64514 | 35189 ft | 493 kts | 303° |
| 2026-04-26 12:51 | -32.95321 | 149.61147 | 35848 ft | 490 kts | 303° |
| 2026-04-26 12:51 | -32.93441 | 149.57799 | 36298 ft | 490 kts | 303° |
| 2026-04-26 12:51 | -32.91544 | 149.54423 | 36297 ft | 491 kts | 303° |
| 2026-04-26 12:52 | -32.87755 | 149.47693 | 36283 ft | 487 kts | 302° |
| 2026-04-26 12:52 | -32.83977 | 149.40991 | 36274 ft | 490 kts | 303° |
| 2026-04-26 12:53 | -32.80181 | 149.34273 | 36258 ft | 487 kts | 303° |
| 2026-04-26 12:53 | -32.76373 | 149.27544 | 36255 ft | 490 kts | 303° |
| 2026-04-26 12:54 | -32.72591 | 149.20872 | 36253 ft | 488 kts | 303° |
| 2026-04-26 12:54 | -32.68784 | 149.14168 | 36260 ft | 489 kts | 303° |
| 2026-04-26 12:55 | -32.65007 | 149.07530 | 36260 ft | 488 kts | 303° |
| 2026-04-26 12:55 | -32.61209 | 149.00867 | 36251 ft | 488 kts | 303° |
| 2026-04-26 12:56 | -32.57398 | 148.94192 | 36244 ft | 490 kts | 303° |
| 2026-04-26 12:56 | -32.53578 | 148.87514 | 36248 ft | 490 kts | 303° |
| 2026-04-26 12:57 | -32.49746 | 148.80826 | 36248 ft | 492 kts | 304° |
| 2026-04-26 12:57 | -32.45919 | 148.74159 | 36246 ft | 492 kts | 304° |
| 2026-04-26 12:58 | -32.40151 | 148.64134 | 36247 ft | 491 kts | 304° |
| 2026-04-26 12:58 | -32.36317 | 148.57483 | 36243 ft | 491 kts | 304° |
| 2026-04-26 12:59 | -32.32455 | 148.50798 | 36241 ft | 492 kts | 304° |
| 2026-04-26 12:59 | -32.28601 | 148.44136 | 36240 ft | 493 kts | 304° |
| 2026-04-26 13:00 | -32.24750 | 148.37492 | 36237 ft | 493 kts | 304° |
| 2026-04-26 13:00 | -32.20857 | 148.30788 | 36226 ft | 493 kts | 305° |
| 2026-04-26 13:01 | -32.17001 | 148.24159 | 36220 ft | 493 kts | 305° |
| 2026-04-26 13:01 | -32.13131 | 148.17516 | 36216 ft | 492 kts | 305° |
| 2026-04-26 13:02 | -32.09246 | 148.10861 | 36216 ft | 493 kts | 305° |
| 2026-04-26 13:02 | -32.05359 | 148.04213 | 36211 ft | 495 kts | 305° |
| 2026-04-26 13:03 | -32.01446 | 147.97533 | 36206 ft | 495 kts | 305° |
| 2026-04-26 13:03 | -31.97539 | 147.90874 | 36204 ft | 495 kts | 305° |
| 2026-04-26 13:04 | -31.93627 | 147.84219 | 36200 ft | 494 kts | 305° |
| 2026-04-26 13:04 | -31.89747 | 147.77629 | 36201 ft | 493 kts | 306° |
| 2026-04-26 13:05 | -31.85812 | 147.70958 | 36201 ft | 495 kts | 305° |
| 2026-04-26 13:05 | -31.81889 | 147.64317 | 36204 ft | 494 kts | 306° |
| 2026-04-26 13:06 | -31.77968 | 147.57692 | 36205 ft | 495 kts | 306° |
| 2026-04-26 13:06 | -31.74054 | 147.51091 | 36209 ft | 495 kts | 306° |
| 2026-04-26 13:07 | -31.70142 | 147.44505 | 36205 ft | 494 kts | 306° |
| 2026-04-26 13:07 | -31.66205 | 147.37888 | 36203 ft | 494 kts | 306° |
| 2026-04-26 13:08 | -31.62276 | 147.31294 | 36202 ft | 494 kts | 306° |
| 2026-04-26 13:08 | -31.58328 | 147.24678 | 36202 ft | 494 kts | 307° |
| 2026-04-26 13:09 | -31.54066 | 147.18440 | 36198 ft | 491 kts | 317° |
| 2026-04-26 13:09 | -31.49018 | 147.12996 | 36201 ft | 490 kts | 320° |
| 2026-04-26 13:10 | -31.43990 | 147.07669 | 36197 ft | 491 kts | 320° |
| 2026-04-26 13:10 | -31.38919 | 147.02316 | 36208 ft | 491 kts | 320° |
| 2026-04-26 13:11 | -31.33855 | 146.96988 | 36208 ft | 489 kts | 320° |
| 2026-04-26 13:11 | -31.28799 | 146.91679 | 36208 ft | 491 kts | 320° |
| 2026-04-26 13:12 | -31.23714 | 146.86350 | 36207 ft | 489 kts | 320° |
| 2026-04-26 13:12 | -31.18645 | 146.81047 | 36210 ft | 491 kts | 320° |
| 2026-04-26 13:13 | -31.13551 | 146.75726 | 36203 ft | 492 kts | 320° |
| 2026-04-26 13:13 | -31.08450 | 146.70406 | 36200 ft | 492 kts | 320° |
| 2026-04-26 13:14 | -31.03355 | 146.65100 | 36208 ft | 493 kts | 320° |
| 2026-04-26 13:14 | -30.98280 | 146.59824 | 36205 ft | 491 kts | 320° |
| 2026-04-26 13:15 | -30.93160 | 146.54507 | 36210 ft | 494 kts | 320° |
| 2026-04-26 13:15 | -30.88899 | 146.50090 | 36210 ft | 492 kts | 320° |
| 2026-04-26 13:16 | -30.82897 | 146.43877 | 36205 ft | 493 kts | 320° |
| 2026-04-26 13:16 | -30.77777 | 146.38585 | 36207 ft | 495 kts | 320° |
| 2026-04-26 13:17 | -30.70056 | 146.30620 | 36210 ft | 495 kts | 321° |
| 2026-04-26 13:18 | -30.62343 | 146.22681 | 36200 ft | 495 kts | 321° |
| 2026-04-26 13:19 | -30.54626 | 146.14755 | 36206 ft | 494 kts | 320° |
| 2026-04-26 13:19 | -30.49470 | 146.09468 | 36201 ft | 494 kts | 321° |
| 2026-04-26 13:20 | -30.44322 | 146.04199 | 36202 ft | 497 kts | 320° |
| 2026-04-26 13:20 | -30.39146 | 145.98908 | 36196 ft | 494 kts | 320° |
| 2026-04-26 13:21 | -30.33975 | 145.93631 | 36198 ft | 498 kts | 320° |
| 2026-04-26 13:21 | -30.28784 | 145.88341 | 36066 ft | 495 kts | 320° |
| 2026-04-26 13:21 | -30.26191 | 145.85701 | 36175 ft | 500 kts | 320° |
| 2026-04-26 13:22 | -30.23540 | 145.83006 | 36181 ft | 504 kts | 320° |
| 2026-04-26 13:22 | -30.18315 | 145.77696 | 36185 ft | 503 kts | 320° |
| 2026-04-26 13:23 | -30.13064 | 145.72366 | 36187 ft | 504 kts | 320° |
| 2026-04-26 13:23 | -30.07776 | 145.67011 | 36179 ft | 507 kts | 319° |
| 2026-04-26 13:24 | -30.02482 | 145.61653 | 36181 ft | 508 kts | 319° |
| 2026-04-26 13:24 | -29.97148 | 145.56267 | 36189 ft | 507 kts | 319° |
| 2026-04-26 13:25 | -29.91845 | 145.50917 | 36185 ft | 508 kts | 319° |
| 2026-04-26 13:25 | -29.86537 | 145.45570 | 36180 ft | 507 kts | 319° |
| 2026-04-26 13:26 | -29.81190 | 145.40195 | 36197 ft | 512 kts | 318° |
| 2026-04-26 13:26 | -29.75851 | 145.34833 | 36192 ft | 508 kts | 319° |
| 2026-04-26 13:27 | -29.70525 | 145.29492 | 36149 ft | 508 kts | 319° |
| 2026-04-26 13:27 | -29.65195 | 145.24155 | 36165 ft | 511 kts | 318° |
| 2026-04-26 13:28 | -29.59858 | 145.18819 | 36171 ft | 510 kts | 318° |
| 2026-04-26 13:28 | -29.54506 | 145.13475 | 36171 ft | 511 kts | 318° |
| 2026-04-26 13:29 | -29.49161 | 145.08148 | 36175 ft | 507 kts | 318° |
| 2026-04-26 13:29 | -29.43806 | 145.02817 | 36179 ft | 509 kts | 318° |
| 2026-04-26 13:30 | -29.38447 | 144.97490 | 36184 ft | 510 kts | 317° |
| 2026-04-26 13:30 | -29.33126 | 144.92209 | 36188 ft | 509 kts | 317° |
| 2026-04-26 13:31 | -29.27776 | 144.86905 | 36201 ft | 509 kts | 317° |
| 2026-04-26 13:31 | -29.22394 | 144.81580 | 36244 ft | 511 kts | 317° |
| 2026-04-26 13:32 | -29.17047 | 144.76296 | 36189 ft | 512 kts | 317° |
| 2026-04-26 13:32 | -29.11632 | 144.70950 | 36169 ft | 510 kts | 317° |
| 2026-04-26 13:33 | -29.06272 | 144.65668 | 36168 ft | 515 kts | 317° |
| 2026-04-26 13:33 | -29.00814 | 144.60298 | 36185 ft | 513 kts | 316° |
| 2026-04-26 13:34 | -28.95390 | 144.54959 | 36203 ft | 517 kts | 316° |
| 2026-04-26 13:34 | -28.92675 | 144.52287 | 36367 ft | 514 kts | 316° |
| 2026-04-26 13:34 | -28.89957 | 144.49614 | 36188 ft | 517 kts | 316° |
| 2026-04-26 13:35 | -28.84539 | 144.44292 | 36384 ft | 516 kts | 316° |
| 2026-04-26 13:35 | -28.81799 | 144.41603 | 36190 ft | 516 kts | 315° |
| 2026-04-26 13:35 | -28.79104 | 144.38960 | 36183 ft | 512 kts | 315° |
| 2026-04-26 13:36 | -28.73675 | 144.33643 | 36177 ft | 517 kts | 316° |
| 2026-04-26 13:36 | -28.68195 | 144.28282 | 36181 ft | 517 kts | 315° |
| 2026-04-26 13:37 | -28.62764 | 144.22978 | 36185 ft | 517 kts | 315° |
| 2026-04-26 13:37 | -28.57333 | 144.17682 | 36173 ft | 515 kts | 315° |
| 2026-04-26 13:38 | -28.51834 | 144.12326 | 36170 ft | 518 kts | 315° |
| 2026-04-26 13:38 | -28.46384 | 144.07025 | 36178 ft | 519 kts | 315° |
| 2026-04-26 13:39 | -28.40904 | 144.01704 | 36172 ft | 515 kts | 314° |
| 2026-04-26 13:39 | -28.35443 | 143.96407 | 36173 ft | 521 kts | 314° |
| 2026-04-26 13:40 | -28.29949 | 143.91087 | 36175 ft | 517 kts | 314° |
| 2026-04-26 13:40 | -28.24482 | 143.85800 | 36177 ft | 517 kts | 314° |
| 2026-04-26 13:41 | -28.19001 | 143.80507 | 36168 ft | 518 kts | 313° |
| 2026-04-26 13:41 | -28.13535 | 143.75238 | 36172 ft | 514 kts | 313° |
| 2026-04-26 13:42 | -28.08107 | 143.70009 | 36165 ft | 515 kts | 313° |
| 2026-04-26 13:42 | -28.02629 | 143.64740 | 36164 ft | 517 kts | 312° |
| 2026-04-26 13:43 | -27.97190 | 143.59518 | 36165 ft | 514 kts | 312° |
| 2026-04-26 13:43 | -27.91723 | 143.54274 | 36163 ft | 516 kts | 312° |
| 2026-04-26 13:44 | -27.86200 | 143.48982 | 36149 ft | 521 kts | 311° |
| 2026-04-26 13:44 | -27.80710 | 143.43735 | 36147 ft | 517 kts | 311° |
| 2026-04-26 13:45 | -27.75152 | 143.38423 | 36146 ft | 521 kts | 311° |
| 2026-04-26 13:45 | -27.69657 | 143.33185 | 36157 ft | 519 kts | 311° |
| 2026-04-26 13:46 | -27.64121 | 143.27911 | 36155 ft | 518 kts | 311° |
| 2026-04-26 13:46 | -27.58632 | 143.22691 | 36154 ft | 519 kts | 311° |
| 2026-04-26 13:47 | -27.53125 | 143.17459 | 36160 ft | 520 kts | 311° |
| 2026-04-26 13:47 | -27.47593 | 143.12212 | 36155 ft | 517 kts | 311° |
| 2026-04-26 13:48 | -27.42066 | 143.06973 | 36158 ft | 522 kts | 311° |
| 2026-04-26 13:48 | -27.36528 | 143.01738 | 36159 ft | 519 kts | 311° |
| 2026-04-26 13:49 | -27.30995 | 142.96510 | 36150 ft | 519 kts | 311° |
| 2026-04-26 13:49 | -27.25477 | 142.91304 | 36157 ft | 519 kts | 310° |
| 2026-04-26 13:50 | -27.19937 | 142.86084 | 36145 ft | 519 kts | 311° |
| 2026-04-26 13:50 | -27.14407 | 142.80879 | 36155 ft | 519 kts | 311° |
| 2026-04-26 13:51 | -27.08884 | 142.75690 | 36158 ft | 520 kts | 311° |
| 2026-04-26 13:51 | -27.03324 | 142.70473 | 36156 ft | 519 kts | 311° |
| 2026-04-26 13:52 | -26.97806 | 142.65302 | 36157 ft | 519 kts | 311° |
| 2026-04-26 13:52 | -26.92249 | 142.60101 | 36154 ft | 517 kts | 311° |
| 2026-04-26 13:53 | -26.86719 | 142.54930 | 36132 ft | 522 kts | 311° |
| 2026-04-26 13:53 | -26.81155 | 142.49739 | 36132 ft | 515 kts | 311° |
| 2026-04-26 13:54 | -26.75640 | 142.44595 | 36129 ft | 521 kts | 311° |
| 2026-04-26 13:54 | -26.70089 | 142.39430 | 36131 ft | 516 kts | 311° |
| 2026-04-26 13:55 | -26.62740 | 142.32597 | 36138 ft | 516 kts | 312° |
| 2026-04-26 13:56 | -26.53493 | 142.24017 | 36131 ft | 517 kts | 312° |
| 2026-04-26 13:56 | -26.47979 | 142.18910 | 36122 ft | 517 kts | 312° |
| 2026-04-26 13:57 | -26.42455 | 142.13800 | 36119 ft | 516 kts | 313° |
| 2026-04-26 13:57 | -26.36919 | 142.08687 | 36124 ft | 515 kts | 313° |
| 2026-04-26 13:58 | -26.31438 | 142.03630 | 36119 ft | 513 kts | 313° |
| 2026-04-26 13:58 | -26.25931 | 141.98555 | 36116 ft | 514 kts | 313° |
| 2026-04-26 13:59 | -26.20389 | 141.93454 | 36115 ft | 515 kts | 313° |
| 2026-04-26 13:59 | -26.14905 | 141.88415 | 36114 ft | 511 kts | 313° |
| 2026-04-26 14:00 | -26.03910 | 141.78326 | 36112 ft | 515 kts | 313° |
| 2026-04-26 14:01 | -25.98399 | 141.73282 | 36112 ft | 513 kts | 313° |
| 2026-04-26 14:01 | -25.92891 | 141.68245 | 36114 ft | 513 kts | 313° |
| 2026-04-26 14:02 | -25.87373 | 141.63207 | 36096 ft | 510 kts | 313° |
| 2026-04-26 14:02 | -25.81890 | 141.58203 | 36098 ft | 513 kts | 313° |
| 2026-04-26 14:03 | -25.76411 | 141.53212 | 36100 ft | 510 kts | 314° |
| 2026-04-26 14:03 | -25.70907 | 141.48204 | 36099 ft | 511 kts | 314° |
| 2026-04-26 14:04 | -25.65428 | 141.43224 | 36099 ft | 511 kts | 314° |
| 2026-04-26 14:04 | -25.59928 | 141.38231 | 36099 ft | 512 kts | 314° |
| 2026-04-26 14:05 | -25.54420 | 141.33238 | 36106 ft | 508 kts | 314° |
| 2026-04-26 14:05 | -25.48917 | 141.28253 | 36108 ft | 511 kts | 314° |
| 2026-04-26 14:06 | -25.43434 | 141.23296 | 36107 ft | 510 kts | 314° |
| 2026-04-26 14:06 | -25.37961 | 141.18352 | 36108 ft | 509 kts | 315° |
| 2026-04-26 14:07 | -25.32459 | 141.13390 | 36109 ft | 508 kts | 314° |
| 2026-04-26 14:07 | -25.27008 | 141.08479 | 36109 ft | 507 kts | 315° |
| 2026-04-26 14:08 | -25.21500 | 141.03522 | 36110 ft | 507 kts | 315° |
| 2026-04-26 14:08 | -25.16046 | 140.98621 | 36111 ft | 507 kts | 315° |
| 2026-04-26 14:09 | -25.10577 | 140.93712 | 36111 ft | 507 kts | 315° |
| 2026-04-26 14:09 | -25.05107 | 140.88806 | 36111 ft | 508 kts | 315° |
| 2026-04-26 14:10 | -24.99646 | 140.83917 | 36112 ft | 506 kts | 315° |
| 2026-04-26 14:10 | -24.94188 | 140.79034 | 36112 ft | 506 kts | 315° |
| 2026-04-26 14:11 | -24.85972 | 140.71698 | 36100 ft | 504 kts | 315° |
| 2026-04-26 14:11 | -24.80546 | 140.66858 | 36099 ft | 503 kts | 315° |
| 2026-04-26 14:12 | -24.75102 | 140.62009 | 36099 ft | 506 kts | 315° |
| 2026-04-26 14:12 | -24.69649 | 140.57158 | 36100 ft | 502 kts | 316° |
| 2026-04-26 14:13 | -24.61512 | 140.49927 | 36101 ft | 502 kts | 316° |
| 2026-04-26 14:14 | -24.56093 | 140.45120 | 36101 ft | 502 kts | 316° |
| 2026-04-26 14:14 | -24.50635 | 140.40282 | 36101 ft | 501 kts | 316° |
| 2026-04-26 14:15 | -24.45210 | 140.35481 | 36100 ft | 501 kts | 316° |
| 2026-04-26 14:15 | -24.39786 | 140.30685 | 36109 ft | 500 kts | 316° |
| 2026-04-26 14:16 | -24.34360 | 140.25893 | 36108 ft | 501 kts | 316° |
| 2026-04-26 14:16 | -24.28944 | 140.21115 | 36108 ft | 498 kts | 317° |
| 2026-04-26 14:17 | -24.23555 | 140.16367 | 36108 ft | 500 kts | 317° |
| 2026-04-26 14:17 | -24.18131 | 140.11594 | 36109 ft | 498 kts | 317° |
| 2026-04-26 14:18 | -24.12736 | 140.06850 | 36110 ft | 498 kts | 317° |
| 2026-04-26 14:18 | -24.07326 | 140.02100 | 36109 ft | 497 kts | 317° |
| 2026-04-26 14:19 | -24.01919 | 139.97356 | 36110 ft | 497 kts | 317° |
| 2026-04-26 14:19 | -23.96519 | 139.92624 | 36109 ft | 498 kts | 317° |
| 2026-04-26 14:20 | -23.91120 | 139.87900 | 36108 ft | 496 kts | 317° |
| 2026-04-26 14:20 | -23.86632 | 139.83974 | 36098 ft | 497 kts | 317° |
| 2026-04-26 14:21 | -23.80355 | 139.78491 | 36096 ft | 496 kts | 317° |
| 2026-04-26 14:21 | -23.74933 | 139.73763 | 36091 ft | 495 kts | 317° |
| 2026-04-26 14:22 | -23.69556 | 139.69076 | 36092 ft | 496 kts | 317° |
| 2026-04-26 14:22 | -23.64171 | 139.64389 | 36091 ft | 495 kts | 317° |
| 2026-04-26 14:23 | -23.58780 | 139.59700 | 36090 ft | 496 kts | 317° |
| 2026-04-26 14:23 | -23.53416 | 139.55041 | 36089 ft | 496 kts | 317° |
| 2026-04-26 14:24 | -23.48023 | 139.50362 | 36090 ft | 496 kts | 317° |
| 2026-04-26 14:24 | -23.42627 | 139.45685 | 36089 ft | 495 kts | 317° |
| 2026-04-26 14:25 | -23.37239 | 139.41020 | 36089 ft | 495 kts | 317° |
| 2026-04-26 14:25 | -23.31839 | 139.36350 | 36088 ft | 494 kts | 318° |
| 2026-04-26 14:26 | -23.26481 | 139.31720 | 36091 ft | 495 kts | 319° |
| 2026-04-26 14:26 | -23.21090 | 139.27068 | 36091 ft | 494 kts | 319° |
| 2026-04-26 14:27 | -23.15684 | 139.22407 | 36089 ft | 494 kts | 319° |
| 2026-04-26 14:27 | -23.10324 | 139.17790 | 36092 ft | 494 kts | 319° |
| 2026-04-26 14:28 | -23.04918 | 139.13141 | 36090 ft | 495 kts | 319° |
| 2026-04-26 14:28 | -22.99520 | 139.08501 | 36090 ft | 495 kts | 319° |
| 2026-04-26 14:29 | -22.94104 | 139.03851 | 36091 ft | 495 kts | 319° |
| 2026-04-26 14:29 | -22.88746 | 138.99257 | 36088 ft | 493 kts | 319° |
| 2026-04-26 14:30 | -22.83334 | 138.94620 | 36089 ft | 493 kts | 319° |
| 2026-04-26 14:30 | -22.77968 | 138.90027 | 36087 ft | 493 kts | 319° |
| 2026-04-26 14:31 | -22.72587 | 138.85428 | 36087 ft | 492 kts | 319° |
| 2026-04-26 14:31 | -22.67225 | 138.80847 | 36090 ft | 491 kts | 319° |
| 2026-04-26 14:32 | -22.61858 | 138.76268 | 36089 ft | 492 kts | 319° |
| 2026-04-26 14:32 | -22.56483 | 138.71687 | 36090 ft | 491 kts | 319° |
| 2026-04-26 14:33 | -22.51104 | 138.67107 | 36091 ft | 491 kts | 319° |
| 2026-04-26 14:33 | -22.45745 | 138.62549 | 36089 ft | 491 kts | 319° |
| 2026-04-26 14:34 | -22.40348 | 138.57964 | 36092 ft | 491 kts | 319° |
| 2026-04-26 14:34 | -22.34972 | 138.53400 | 36091 ft | 491 kts | 319° |
| 2026-04-26 14:35 | -22.29608 | 138.48851 | 36091 ft | 490 kts | 319° |
| 2026-04-26 14:35 | -22.24260 | 138.44321 | 36091 ft | 489 kts | 319° |
| 2026-04-26 14:36 | -22.18886 | 138.39772 | 36091 ft | 490 kts | 319° |
| 2026-04-26 14:36 | -22.13524 | 138.35239 | 36092 ft | 489 kts | 319° |
| 2026-04-26 14:37 | -22.08179 | 138.30725 | 36094 ft | 489 kts | 319° |
| 2026-04-26 14:37 | -22.02801 | 138.26186 | 36093 ft | 489 kts | 320° |
| 2026-04-26 14:38 | -21.97430 | 138.21660 | 36093 ft | 489 kts | 320° |
| 2026-04-26 14:38 | -21.92092 | 138.17165 | 36089 ft | 488 kts | 319° |
| 2026-04-26 14:39 | -21.86724 | 138.12648 | 36085 ft | 488 kts | 319° |
| 2026-04-26 14:39 | -21.81356 | 138.08136 | 36090 ft | 488 kts | 319° |
| 2026-04-26 14:40 | -21.75993 | 138.03633 | 36086 ft | 488 kts | 319° |
| 2026-04-26 14:40 | -21.70636 | 137.99139 | 36083 ft | 488 kts | 319° |
| 2026-04-26 14:41 | -21.65304 | 137.94670 | 36087 ft | 489 kts | 319° |
| 2026-04-26 14:41 | -21.59939 | 137.90179 | 36082 ft | 488 kts | 319° |
| 2026-04-26 14:42 | -21.54544 | 137.85704 | 36086 ft | 488 kts | 319° |
| 2026-04-26 14:42 | -21.49155 | 137.81267 | 36083 ft | 488 kts | 319° |
| 2026-04-26 14:43 | -21.43796 | 137.76855 | 36079 ft | 488 kts | 319° |
| 2026-04-26 14:43 | -21.38384 | 137.72403 | 36073 ft | 487 kts | 319° |
| 2026-04-26 14:44 | -21.33001 | 137.67979 | 36073 ft | 487 kts | 319° |
| 2026-04-26 14:44 | -21.27636 | 137.63574 | 36077 ft | 487 kts | 319° |
| 2026-04-26 14:45 | -21.22239 | 137.59146 | 36078 ft | 487 kts | 318° |
| 2026-04-26 14:45 | -21.16866 | 137.54741 | 36064 ft | 486 kts | 318° |
| 2026-04-26 14:46 | -21.11484 | 137.50334 | 36082 ft | 487 kts | 318° |
| 2026-04-26 14:46 | -21.06116 | 137.45943 | 36078 ft | 486 kts | 318° |
| 2026-04-26 14:47 | -21.00727 | 137.41538 | 36076 ft | 486 kts | 317° |
| 2026-04-26 14:47 | -20.95349 | 137.37146 | 36070 ft | 485 kts | 317° |
| 2026-04-26 14:48 | -20.89987 | 137.32771 | 36080 ft | 485 kts | 317° |
| 2026-04-26 14:48 | -20.84608 | 137.28386 | 36063 ft | 484 kts | 317° |
| 2026-04-26 14:49 | -20.79237 | 137.24011 | 36072 ft | 487 kts | 317° |
| 2026-04-26 14:49 | -20.73848 | 137.19626 | 36068 ft | 485 kts | 317° |
| 2026-04-26 14:50 | -20.68510 | 137.15288 | 36076 ft | 484 kts | 317° |
| 2026-04-26 14:50 | -20.63150 | 137.10934 | 36068 ft | 484 kts | 316° |
| 2026-04-26 14:51 | -20.57780 | 137.06576 | 36065 ft | 483 kts | 316° |
| 2026-04-26 14:51 | -20.52453 | 137.02258 | 36067 ft | 482 kts | 316° |
| 2026-04-26 14:52 | -20.47061 | 136.97890 | 36068 ft | 484 kts | 316° |
| 2026-04-26 14:52 | -20.41724 | 136.93574 | 36063 ft | 481 kts | 315° |
| 2026-04-26 14:53 | -20.36378 | 136.89250 | 36065 ft | 481 kts | 315° |
| 2026-04-26 14:53 | -20.31044 | 136.84941 | 36073 ft | 482 kts | 315° |
| 2026-04-26 14:54 | -20.25709 | 136.80637 | 36069 ft | 481 kts | 315° |
| 2026-04-26 14:54 | -20.20381 | 136.76340 | 36071 ft | 480 kts | 315° |
| 2026-04-26 14:55 | -20.15051 | 136.72044 | 36067 ft | 482 kts | 314° |
| 2026-04-26 14:55 | -20.09717 | 136.67752 | 36067 ft | 482 kts | 314° |
| 2026-04-26 14:56 | -20.04361 | 136.63444 | 36063 ft | 480 kts | 314° |
| 2026-04-26 14:56 | -19.99032 | 136.59164 | 36065 ft | 480 kts | 314° |
| 2026-04-26 14:57 | -19.93752 | 136.54927 | 36059 ft | 476 kts | 313° |
| 2026-04-26 14:57 | -19.88426 | 136.50655 | 36043 ft | 477 kts | 313° |
| 2026-04-26 14:58 | -19.83109 | 136.46391 | 36043 ft | 479 kts | 313° |
| 2026-04-26 14:58 | -19.77776 | 136.42122 | 36042 ft | 481 kts | 313° |
| 2026-04-26 14:59 | -19.72480 | 136.37888 | 36038 ft | 475 kts | 313° |
| 2026-04-26 14:59 | -19.67161 | 136.33633 | 36057 ft | 480 kts | 313° |
| 2026-04-26 15:00 | -19.61841 | 136.29385 | 36060 ft | 479 kts | 314° |
| 2026-04-26 15:00 | -19.56487 | 136.25111 | 36063 ft | 484 kts | 313° |
| 2026-04-26 15:01 | -19.51138 | 136.20848 | 36056 ft | 481 kts | 313° |
| 2026-04-26 15:01 | -19.45816 | 136.16611 | 36055 ft | 476 kts | 313° |
| 2026-04-26 15:02 | -19.40489 | 136.12370 | 36047 ft | 479 kts | 313° |
| 2026-04-26 15:02 | -19.35161 | 136.08131 | 36053 ft | 484 kts | 313° |
| 2026-04-26 15:03 | -19.29776 | 136.03854 | 36055 ft | 479 kts | 313° |
| 2026-04-26 15:03 | -19.24435 | 135.99614 | 36062 ft | 480 kts | 314° |
| 2026-04-26 15:04 | -19.19074 | 135.95361 | 36063 ft | 481 kts | 314° |
| 2026-04-26 15:04 | -19.13731 | 135.91126 | 36066 ft | 483 kts | 314° |
| 2026-04-26 15:05 | -19.08388 | 135.86897 | 36063 ft | 477 kts | 314° |
| 2026-04-26 15:05 | -19.03060 | 135.82677 | 36063 ft | 484 kts | 314° |
| 2026-04-26 15:06 | -18.97674 | 135.78421 | 36062 ft | 479 kts | 314° |
| 2026-04-26 15:06 | -18.92341 | 135.74208 | 36060 ft | 481 kts | 314° |
| 2026-04-26 15:07 | -18.84290 | 135.67853 | 36035 ft | 482 kts | 314° |
| 2026-04-26 15:07 | -18.78943 | 135.63640 | 36032 ft | 480 kts | 314° |
| 2026-04-26 15:08 | -18.73539 | 135.59381 | 36034 ft | 482 kts | 314° |
| 2026-04-26 15:08 | -18.68201 | 135.55180 | 36034 ft | 481 kts | 314° |
| 2026-04-26 15:09 | -18.62842 | 135.50967 | 36032 ft | 479 kts | 314° |
| 2026-04-26 15:09 | -18.57476 | 135.46750 | 36032 ft | 479 kts | 314° |
| 2026-04-26 15:10 | -18.53932 | 135.43970 | 36034 ft | 477 kts | 314° |
| 2026-04-26 15:10 | -18.46803 | 135.38371 | 36033 ft | 481 kts | 315° |
| 2026-04-26 15:11 | -18.41439 | 135.34169 | 36044 ft | 478 kts | 315° |
| 2026-04-26 15:11 | -18.36079 | 135.29970 | 36048 ft | 477 kts | 315° |
| 2026-04-26 15:12 | -18.30739 | 135.25789 | 36045 ft | 480 kts | 315° |
| 2026-04-26 15:12 | -18.25396 | 135.21611 | 36044 ft | 478 kts | 315° |
| 2026-04-26 15:13 | -18.20039 | 135.17425 | 36045 ft | 479 kts | 315° |
| 2026-04-26 15:13 | -18.14747 | 135.13294 | 36046 ft | 477 kts | 315° |
| 2026-04-26 15:14 | -18.09355 | 135.09085 | 36042 ft | 480 kts | 315° |
| 2026-04-26 15:14 | -18.03983 | 135.04898 | 36044 ft | 479 kts | 316° |
| 2026-04-26 15:15 | -17.98675 | 135.00763 | 36041 ft | 478 kts | 316° |
| 2026-04-26 15:15 | -17.93316 | 134.96591 | 36043 ft | 477 kts | 316° |
| 2026-04-26 15:16 | -17.87971 | 134.92435 | 36034 ft | 475 kts | 316° |
| 2026-04-26 15:16 | -17.82640 | 134.88290 | 36034 ft | 477 kts | 316° |
| 2026-04-26 15:17 | -17.79072 | 134.85519 | 36036 ft | 475 kts | 316° |
| 2026-04-26 15:17 | -17.72016 | 134.80043 | 36032 ft | 475 kts | 316° |
| 2026-04-26 15:18 | -17.66965 | 134.76125 | 36037 ft | 477 kts | 316° |
| 2026-04-26 15:18 | -17.61659 | 134.72014 | 36031 ft | 475 kts | 316° |
| 2026-04-26 15:19 | -17.56301 | 134.67864 | 36032 ft | 479 kts | 316° |
| 2026-04-26 15:19 | -17.50946 | 134.63722 | 36025 ft | 475 kts | 316° |
| 2026-04-26 15:20 | -17.45612 | 134.59598 | 36017 ft | 475 kts | 317° |
| 2026-04-26 15:20 | -17.40274 | 134.55473 | 36012 ft | 477 kts | 317° |
| 2026-04-26 15:21 | -17.34938 | 134.51355 | 36010 ft | 475 kts | 317° |
| 2026-04-26 15:21 | -17.29592 | 134.47231 | 36010 ft | 477 kts | 317° |
| 2026-04-26 15:22 | -17.24276 | 134.43132 | 36013 ft | 476 kts | 317° |
| 2026-04-26 15:22 | -17.18936 | 134.39018 | 36011 ft | 476 kts | 317° |
| 2026-04-26 15:23 | -17.13603 | 134.34914 | 36009 ft | 476 kts | 317° |
| 2026-04-26 15:23 | -17.08244 | 134.30791 | 36024 ft | 477 kts | 317° |
| 2026-04-26 15:24 | -17.02922 | 134.26701 | 36024 ft | 475 kts | 318° |
| 2026-04-26 15:24 | -16.97593 | 134.22607 | 36026 ft | 477 kts | 318° |
| 2026-04-26 15:25 | -16.93113 | 134.19168 | 36023 ft | 476 kts | 318° |
| 2026-04-26 15:25 | -16.86881 | 134.14389 | 36017 ft | 475 kts | 318° |
| 2026-04-26 15:26 | -16.81523 | 134.10283 | 36016 ft | 476 kts | 318° |
| 2026-04-26 15:26 | -16.76174 | 134.06186 | 36017 ft | 475 kts | 318° |
| 2026-04-26 15:27 | -16.70872 | 134.02129 | 36014 ft | 476 kts | 318° |
| 2026-04-26 15:27 | -16.65534 | 133.98047 | 36018 ft | 475 kts | 318° |
| 2026-04-26 15:28 | -16.60181 | 133.93956 | 36015 ft | 473 kts | 318° |
| 2026-04-26 15:28 | -16.54865 | 133.89896 | 36013 ft | 474 kts | 318° |
| 2026-04-26 15:29 | -16.49559 | 133.85851 | 36011 ft | 474 kts | 318° |
| 2026-04-26 15:30 | -16.38887 | 133.77724 | 36012 ft | 474 kts | 318° |
| 2026-04-26 15:30 | -16.33584 | 133.73691 | 36015 ft | 474 kts | 318° |
| 2026-04-26 15:31 | -16.25577 | 133.67606 | 36013 ft | 475 kts | 318° |
| 2026-04-26 15:32 | -16.19365 | 133.62889 | 36009 ft | 473 kts | 319° |
| 2026-04-26 15:32 | -16.12261 | 133.57500 | 36009 ft | 474 kts | 318° |
| 2026-04-26 15:33 | -16.06925 | 133.53455 | 36007 ft | 474 kts | 318° |
| 2026-04-26 15:33 | -16.01587 | 133.49409 | 36005 ft | 475 kts | 318° |
| 2026-04-26 15:34 | -15.96284 | 133.45396 | 36004 ft | 472 kts | 319° |
| 2026-04-26 15:34 | -15.90963 | 133.41370 | 36003 ft | 473 kts | 319° |
| 2026-04-26 15:35 | -15.85618 | 133.37329 | 35998 ft | 475 kts | 319° |
| 2026-04-26 15:35 | -15.80258 | 133.33279 | 36011 ft | 475 kts | 319° |
| 2026-04-26 15:36 | -15.74893 | 133.29228 | 36009 ft | 476 kts | 319° |
| 2026-04-26 15:36 | -15.69554 | 133.25200 | 36007 ft | 475 kts | 319° |
| 2026-04-26 15:37 | -15.64199 | 133.21162 | 36007 ft | 474 kts | 319° |
| 2026-04-26 15:37 | -15.58849 | 133.17131 | 36007 ft | 476 kts | 319° |
| 2026-04-26 15:38 | -15.53514 | 133.13115 | 36006 ft | 475 kts | 319° |
| 2026-04-26 15:38 | -15.48157 | 133.09084 | 36007 ft | 476 kts | 319° |
| 2026-04-26 15:39 | -15.42790 | 133.05046 | 36006 ft | 475 kts | 319° |
| 2026-04-26 15:39 | -15.39216 | 133.02361 | 36007 ft | 476 kts | 319° |
| 2026-04-26 15:40 | -15.32413 | 132.97250 | 36003 ft | 475 kts | 319° |
| 2026-04-26 15:40 | -15.27057 | 132.93230 | 35997 ft | 476 kts | 319° |
| 2026-04-26 15:41 | -15.21688 | 132.89203 | 35993 ft | 475 kts | 319° |
| 2026-04-26 15:41 | -15.16340 | 132.85194 | 35985 ft | 475 kts | 319° |
| 2026-04-26 15:42 | -15.10978 | 132.81177 | 35982 ft | 476 kts | 319° |
| 2026-04-26 15:42 | -15.05608 | 132.77156 | 35983 ft | 475 kts | 319° |
| 2026-04-26 15:43 | -15.00231 | 132.73134 | 35979 ft | 475 kts | 319° |
| 2026-04-26 15:44 | -14.92211 | 132.67137 | 35978 ft | 477 kts | 319° |
| 2026-04-26 15:44 | -14.86725 | 132.63039 | 36820 ft | 481 kts | 319° |
| 2026-04-26 15:44 | -14.84044 | 132.61038 | 37710 ft | 473 kts | 319° |
| 2026-04-26 15:45 | -14.78717 | 132.57063 | 37976 ft | 471 kts | 320° |
| 2026-04-26 15:45 | -14.76039 | 132.55066 | 37970 ft | 471 kts | 319° |
| 2026-04-26 15:46 | -14.68062 | 132.49118 | 37972 ft | 472 kts | 320° |
| 2026-04-26 15:46 | -14.64496 | 132.46460 | 37972 ft | 472 kts | 320° |
| 2026-04-26 15:47 | -14.54706 | 132.39172 | 37969 ft | 472 kts | 319° |
| 2026-04-26 15:48 | -14.50017 | 132.34578 | 37977 ft | 465 kts | 305° |
| 2026-04-26 15:48 | -14.46030 | 132.29344 | 37987 ft | 463 kts | 304° |
| 2026-04-26 15:49 | -14.42063 | 132.24110 | 37988 ft | 465 kts | 304° |
| 2026-04-26 15:49 | -14.38057 | 132.18831 | 37984 ft | 465 kts | 304° |
| 2026-04-26 15:50 | -14.34109 | 132.13632 | 37987 ft | 463 kts | 304° |
| 2026-04-26 15:50 | -14.30103 | 132.08362 | 37984 ft | 465 kts | 305° |
| 2026-04-26 15:51 | -14.26112 | 132.03116 | 37983 ft | 465 kts | 304° |
| 2026-04-26 15:51 | -14.22120 | 131.97871 | 37975 ft | 464 kts | 305° |
| 2026-04-26 15:52 | -14.18152 | 131.92660 | 37972 ft | 465 kts | 305° |
| 2026-04-26 15:52 | -14.14135 | 131.87390 | 37964 ft | 466 kts | 305° |
| 2026-04-26 15:53 | -14.10141 | 131.82153 | 37963 ft | 465 kts | 305° |
| 2026-04-26 15:53 | -14.06139 | 131.76910 | 37968 ft | 466 kts | 305° |
| 2026-04-26 15:54 | -14.02138 | 131.71670 | 37965 ft | 467 kts | 305° |
| 2026-04-26 15:54 | -13.98124 | 131.66417 | 37970 ft | 467 kts | 305° |
| 2026-04-26 15:55 | -13.94086 | 131.61136 | 37965 ft | 468 kts | 305° |
| 2026-04-26 15:55 | -13.90063 | 131.55878 | 37963 ft | 468 kts | 305° |
| 2026-04-26 15:56 | -13.86036 | 131.50618 | 37951 ft | 467 kts | 305° |
| 2026-04-26 15:56 | -13.82015 | 131.45367 | 37944 ft | 469 kts | 305° |
| 2026-04-26 15:57 | -13.77965 | 131.40085 | 37941 ft | 467 kts | 305° |
| 2026-04-26 15:57 | -13.73943 | 131.34840 | 37939 ft | 468 kts | 306° |
| 2026-04-26 15:58 | -13.69896 | 131.29568 | 37942 ft | 468 kts | 305° |
| 2026-04-26 15:58 | -13.65873 | 131.24330 | 37943 ft | 468 kts | 306° |
| 2026-04-26 15:59 | -13.61849 | 131.19092 | 37946 ft | 469 kts | 306° |
| 2026-04-26 15:59 | -13.57822 | 131.13846 | 37949 ft | 468 kts | 306° |
| 2026-04-26 16:00 | -13.53774 | 131.08574 | 37951 ft | 469 kts | 306° |
| 2026-04-26 16:00 | -13.49735 | 131.03319 | 37951 ft | 469 kts | 306° |
| 2026-04-26 16:01 | -13.45700 | 130.98071 | 37949 ft | 469 kts | 306° |
| 2026-04-26 16:01 | -13.41671 | 130.92835 | 37951 ft | 468 kts | 306° |
| 2026-04-26 16:02 | -13.37631 | 130.87589 | 37948 ft | 470 kts | 306° |
| 2026-04-26 16:02 | -13.33576 | 130.82324 | 37946 ft | 468 kts | 306° |
| 2026-04-26 16:03 | -13.29559 | 130.77113 | 37943 ft | 467 kts | 306° |
| 2026-04-26 16:03 | -13.25516 | 130.71872 | 37941 ft | 469 kts | 306° |
| 2026-04-26 16:04 | -13.21478 | 130.66640 | 37936 ft | 468 kts | 306° |
| 2026-04-26 16:04 | -13.17417 | 130.61381 | 37934 ft | 468 kts | 306° |
| 2026-04-26 16:05 | -13.13398 | 130.56180 | 37933 ft | 468 kts | 306° |
| 2026-04-26 16:05 | -13.09342 | 130.50934 | 37928 ft | 467 kts | 306° |
| 2026-04-26 16:06 | -13.05304 | 130.45715 | 37925 ft | 467 kts | 306° |
| 2026-04-26 16:06 | -13.01275 | 130.40509 | 37920 ft | 467 kts | 306° |
| 2026-04-26 16:07 | -12.97238 | 130.35298 | 37918 ft | 467 kts | 306° |
| 2026-04-26 16:07 | -12.93203 | 130.30092 | 37923 ft | 467 kts | 307° |
| 2026-04-26 16:08 | -12.89172 | 130.24893 | 37915 ft | 467 kts | 306° |
| 2026-04-26 16:08 | -12.85126 | 130.19678 | 37918 ft | 467 kts | 306° |
| 2026-04-26 16:09 | -12.81092 | 130.14481 | 37905 ft | 467 kts | 307° |
| 2026-04-26 16:09 | -12.77036 | 130.09259 | 37908 ft | 469 kts | 307° |
| 2026-04-26 16:10 | -12.72965 | 130.04022 | 37908 ft | 468 kts | 307° |
| 2026-04-26 16:10 | -12.68918 | 129.98817 | 37901 ft | 469 kts | 307° |
| 2026-04-26 16:11 | -12.64856 | 129.93597 | 37905 ft | 469 kts | 307° |
| 2026-04-26 16:11 | -12.60868 | 129.88475 | 37900 ft | 469 kts | 307° |
| 2026-04-26 16:12 | -12.56799 | 129.83252 | 37901 ft | 473 kts | 307° |
| 2026-04-26 16:12 | -12.50560 | 129.75247 | 37897 ft | 485 kts | 307° |
| 2026-04-26 16:13 | -12.46313 | 129.69801 | 37895 ft | 488 kts | 307° |
| 2026-04-26 16:13 | -12.46181 | 129.69634 | 37894 ft | 488 kts | 307° |
| 2026-04-26 16:14 | -12.44294 | 129.67213 | 37981 ft | 496 kts | 311° |
| 2026-04-26 16:14 | -12.39915 | 129.61609 | 37903 ft | 507 kts | 311° |
| 2026-04-26 16:15 | -12.37722 | 129.58801 | 37902 ft | 510 kts | 311° |
| 2026-04-26 16:15 | -12.37112 | 129.58022 | 37902 ft | 511 kts | 311° |
| 2026-04-26 16:16 | -12.34114 | 129.54185 | 37904 ft | 516 kts | 312° |
| 2026-04-26 16:16 | -12.32565 | 129.52200 | 37910 ft | 519 kts | 317° |
| 2026-04-26 16:17 | -12.28009 | 129.46382 | 37911 ft | 529 kts | 316° |
| 2026-04-26 16:17 | -12.25417 | 129.43071 | 37910 ft | 534 kts | 316° |
| 2026-04-26 16:18 | -12.20447 | 129.36726 | 37915 ft | 546 kts | 318° |
| 2026-04-26 16:19 | -12.13270 | 129.27565 | 37888 ft | 553 kts | 318° |
| 2026-04-26 16:20 | -12.06069 | 129.18378 | 37890 ft | 554 kts | 318° |
| 2026-04-26 16:20 | -11.98822 | 129.09180 | 37893 ft | 554 kts | 319° |
| 2026-04-26 16:21 | -11.93998 | 129.03064 | 37893 ft | 553 kts | 319° |
| 2026-04-26 16:21 | -11.89182 | 128.96964 | 37899 ft | 552 kts | 319° |
| 2026-04-26 16:22 | -11.84355 | 128.90852 | 37905 ft | 552 kts | 318° |
| 2026-04-26 16:22 | -11.79531 | 128.84749 | 37905 ft | 553 kts | 318° |
| 2026-04-26 16:23 | -11.74685 | 128.78621 | 37907 ft | 552 kts | 319° |
| 2026-04-26 16:23 | -11.69877 | 128.72546 | 37908 ft | 553 kts | 318° |
| 2026-04-26 16:24 | -11.65039 | 128.66437 | 37911 ft | 555 kts | 319° |
| 2026-04-26 16:24 | -11.60179 | 128.60301 | 37912 ft | 554 kts | 318° |
| 2026-04-26 16:25 | -11.55359 | 128.54221 | 37913 ft | 553 kts | 318° |
| 2026-04-26 16:25 | -11.50520 | 128.48125 | 37913 ft | 555 kts | 318° |
| 2026-04-26 16:26 | -11.46464 | 128.43012 | 37914 ft | 552 kts | 318° |
| 2026-04-26 16:26 | -11.40840 | 128.35930 | 37918 ft | 555 kts | 319° |
| 2026-04-26 16:27 | -11.35987 | 128.29823 | 37890 ft | 555 kts | 319° |
| 2026-04-26 16:27 | -11.31134 | 128.23718 | 37890 ft | 553 kts | 318° |
| 2026-04-26 16:28 | -11.26294 | 128.17638 | 37893 ft | 553 kts | 319° |
| 2026-04-26 16:28 | -11.21449 | 128.11549 | 37893 ft | 552 kts | 319° |
| 2026-04-26 16:29 | -11.16629 | 128.05502 | 37895 ft | 555 kts | 319° |
| 2026-04-26 16:29 | -11.11760 | 127.99393 | 37898 ft | 554 kts | 319° |
| 2026-04-26 16:30 | -11.06900 | 127.93301 | 37896 ft | 555 kts | 319° |
| 2026-04-26 16:30 | -11.02055 | 127.87227 | 37900 ft | 553 kts | 319° |
| 2026-04-26 16:31 | -10.97210 | 127.81160 | 37900 ft | 553 kts | 319° |
| 2026-04-26 16:31 | -10.92370 | 127.75102 | 37900 ft | 554 kts | 319° |
| 2026-04-26 16:32 | -10.88345 | 127.70067 | 37911 ft | 553 kts | 319° |
| 2026-04-26 16:32 | -10.82654 | 127.62951 | 37914 ft | 554 kts | 319° |
| 2026-04-26 16:33 | -10.77828 | 127.56919 | 37914 ft | 553 kts | 318° |
| 2026-04-26 16:33 | -10.72959 | 127.50839 | 37916 ft | 553 kts | 319° |
| 2026-04-26 16:34 | -10.68088 | 127.44760 | 37917 ft | 555 kts | 319° |
| 2026-04-26 16:34 | -10.63237 | 127.38708 | 37919 ft | 553 kts | 319° |
| 2026-04-26 16:35 | -10.58373 | 127.32646 | 37893 ft | 555 kts | 319° |
| 2026-04-26 16:35 | -10.53582 | 127.26673 | 37892 ft | 552 kts | 319° |
| 2026-04-26 16:36 | -10.48725 | 127.20624 | 37895 ft | 551 kts | 319° |
| 2026-04-26 16:36 | -10.43864 | 127.14532 | 37888 ft | 559 kts | 315° |
| 2026-04-26 16:37 | -10.39832 | 127.07732 | 37896 ft | 567 kts | 307° |
| 2026-04-26 16:37 | -10.36661 | 127.01829 | 37898 ft | 570 kts | 307° |
| 2026-04-26 16:38 | -10.32241 | 126.93614 | 37899 ft | 569 kts | 307° |
| 2026-04-26 16:38 | -10.28456 | 126.86597 | 37902 ft | 569 kts | 307° |
| 2026-04-26 16:39 | -10.24644 | 126.79542 | 37904 ft | 571 kts | 307° |
| 2026-04-26 16:39 | -10.20827 | 126.72482 | 37904 ft | 568 kts | 307° |
| 2026-04-26 16:40 | -10.17036 | 126.65483 | 37906 ft | 570 kts | 307° |
| 2026-04-26 16:40 | -10.13238 | 126.58472 | 37909 ft | 570 kts | 307° |
| 2026-04-26 16:41 | -10.09403 | 126.51403 | 37910 ft | 571 kts | 307° |
| 2026-04-26 16:41 | -10.05579 | 126.44353 | 37913 ft | 570 kts | 307° |
| 2026-04-26 16:42 | -10.01759 | 126.37322 | 37913 ft | 572 kts | 307° |
| 2026-04-26 16:42 | -9.97942 | 126.30294 | 37889 ft | 569 kts | 307° |
| 2026-04-26 16:43 | -9.94133 | 126.23289 | 37888 ft | 571 kts | 307° |
| 2026-04-26 16:43 | -9.90301 | 126.16243 | 37890 ft | 568 kts | 307° |
| 2026-04-26 16:44 | -9.86558 | 126.09194 | 37903 ft | 574 kts | 304° |
| 2026-04-26 16:44 | -9.83129 | 126.01888 | 37902 ft | 574 kts | 303° |
| 2026-04-26 16:45 | -9.79720 | 125.94630 | 37904 ft | 574 kts | 303° |
| 2026-04-26 16:45 | -9.76270 | 125.87321 | 37906 ft | 575 kts | 303° |
| 2026-04-26 16:46 | -9.72813 | 125.80018 | 37908 ft | 573 kts | 304° |
| 2026-04-26 16:46 | -9.69362 | 125.72749 | 37910 ft | 575 kts | 304° |
| 2026-04-26 16:47 | -9.65919 | 125.65507 | 37911 ft | 575 kts | 304° |
| 2026-04-26 16:47 | -9.62457 | 125.58231 | 37911 ft | 571 kts | 303° |
| 2026-04-26 16:48 | -9.59000 | 125.50976 | 37914 ft | 576 kts | 303° |
| 2026-04-26 16:48 | -9.55517 | 125.43669 | 37914 ft | 574 kts | 303° |
| 2026-04-26 16:49 | -9.52055 | 125.36410 | 37916 ft | 572 kts | 304° |
| 2026-04-26 16:49 | -9.48576 | 125.29125 | 37892 ft | 574 kts | 303° |
| 2026-04-26 16:50 | -9.45117 | 125.21883 | 37900 ft | 573 kts | 304° |
| 2026-04-26 16:50 | -9.41648 | 125.14626 | 37915 ft | 573 kts | 304° |
| 2026-04-26 16:51 | -9.38182 | 125.07383 | 37934 ft | 574 kts | 304° |
| 2026-04-26 16:51 | -9.34714 | 125.00136 | 37960 ft | 572 kts | 304° |
| 2026-04-26 16:52 | -9.32402 | 124.95309 | 37976 ft | 573 kts | 304° |
| 2026-04-26 16:52 | -9.27775 | 124.85655 | 37993 ft | 572 kts | 303° |
| 2026-04-26 16:53 | -9.24288 | 124.78384 | 38001 ft | 572 kts | 304° |
| 2026-04-26 16:53 | -9.20825 | 124.71167 | 37987 ft | 572 kts | 304° |
| 2026-04-26 16:54 | -9.17342 | 124.63915 | 37960 ft | 573 kts | 304° |
| 2026-04-26 16:54 | -9.13874 | 124.56694 | 37939 ft | 572 kts | 304° |
| 2026-04-26 16:55 | -9.10401 | 124.49473 | 37925 ft | 575 kts | 303° |
| 2026-04-26 16:55 | -9.06902 | 124.42198 | 37920 ft | 575 kts | 304° |
| 2026-04-26 16:56 | -9.01652 | 124.31292 | 37890 ft | 573 kts | 304° |
| 2026-04-26 16:57 | -8.98161 | 124.24047 | 37888 ft | 575 kts | 304° |
| 2026-04-26 16:57 | -8.93556 | 124.14491 | 37890 ft | 572 kts | 304° |
| 2026-04-26 16:58 | -8.90644 | 124.08457 | 37891 ft | 572 kts | 304° |
| 2026-04-26 16:59 | -8.84821 | 123.96397 | 37905 ft | 575 kts | 304° |
| 2026-04-26 17:00 | -8.77836 | 123.81941 | 37907 ft | 573 kts | 304° |
| 2026-04-26 17:00 | -8.72606 | 123.71130 | 37911 ft | 572 kts | 304° |
| 2026-04-26 17:01 | -8.69099 | 123.63887 | 37916 ft | 573 kts | 304° |
| 2026-04-26 17:01 | -8.65600 | 123.56665 | 37929 ft | 572 kts | 304° |
| 2026-04-26 17:02 | -8.62110 | 123.49464 | 37946 ft | 572 kts | 304° |
| 2026-04-26 17:02 | -8.58618 | 123.42262 | 37962 ft | 573 kts | 304° |
| 2026-04-26 17:03 | -8.55110 | 123.35035 | 37973 ft | 574 kts | 304° |
| 2026-04-26 17:03 | -8.51621 | 123.27849 | 37954 ft | 572 kts | 304° |
| 2026-04-26 17:04 | -8.48101 | 123.20602 | 37955 ft | 572 kts | 304° |
| 2026-04-26 17:04 | -8.44590 | 123.13379 | 37934 ft | 573 kts | 304° |
| 2026-04-26 17:05 | -8.41108 | 123.06219 | 37916 ft | 574 kts | 304° |
| 2026-04-26 17:05 | -8.37584 | 122.98977 | 37900 ft | 572 kts | 304° |
| 2026-04-26 17:06 | -8.34076 | 122.91773 | 37902 ft | 573 kts | 304° |
| 2026-04-26 17:06 | -8.30556 | 122.84547 | 37905 ft | 574 kts | 304° |
| 2026-04-26 17:07 | -8.27066 | 122.77386 | 37905 ft | 573 kts | 304° |
| 2026-04-26 17:07 | -8.23551 | 122.70176 | 37904 ft | 572 kts | 304° |
| 2026-04-26 17:08 | -8.20014 | 122.62928 | 37905 ft | 572 kts | 304° |
| 2026-04-26 17:08 | -8.16501 | 122.55733 | 37908 ft | 573 kts | 304° |
| 2026-04-26 17:09 | -8.13593 | 122.49778 | 37909 ft | 572 kts | 304° |
| 2026-04-26 17:09 | -8.09493 | 122.41389 | 37912 ft | 573 kts | 304° |
| 2026-04-26 17:10 | -8.05982 | 122.34209 | 37906 ft | 572 kts | 304° |
| 2026-04-26 17:10 | -8.02460 | 122.27012 | 37888 ft | 572 kts | 304° |
| 2026-04-26 17:11 | -7.98949 | 122.19839 | 37889 ft | 573 kts | 304° |
| 2026-04-26 17:11 | -7.95416 | 122.12624 | 37891 ft | 573 kts | 304° |
| 2026-04-26 17:12 | -7.90133 | 122.01842 | 37892 ft | 571 kts | 304° |
| 2026-04-26 17:13 | -7.84843 | 121.91058 | 37906 ft | 573 kts | 304° |
| 2026-04-26 17:14 | -7.79553 | 121.80282 | 37907 ft | 574 kts | 304° |
| 2026-04-26 17:14 | -7.74246 | 121.69476 | 37911 ft | 574 kts | 304° |
| 2026-04-26 17:15 | -7.68951 | 121.58705 | 37914 ft | 574 kts | 304° |
| 2026-04-26 17:16 | -7.65411 | 121.51508 | 37913 ft | 572 kts | 304° |
| 2026-04-26 17:16 | -7.61884 | 121.44341 | 37917 ft | 573 kts | 304° |
| 2026-04-26 17:17 | -7.58354 | 121.37174 | 37918 ft | 573 kts | 304° |
| 2026-04-26 17:17 | -7.54821 | 121.30000 | 37892 ft | 571 kts | 304° |
| 2026-04-26 17:18 | -7.51269 | 121.22794 | 37893 ft | 572 kts | 305° |
| 2026-04-26 17:18 | -7.47743 | 121.15646 | 37895 ft | 573 kts | 304° |
| 2026-04-26 17:19 | -7.42455 | 121.04926 | 37897 ft | 572 kts | 304° |
| 2026-04-26 17:19 | -7.38905 | 120.97740 | 37900 ft | 575 kts | 304° |
| 2026-04-26 17:20 | -7.35934 | 120.91722 | 37899 ft | 572 kts | 304° |
| 2026-04-26 17:20 | -7.31803 | 120.83363 | 37902 ft | 572 kts | 304° |
| 2026-04-26 17:21 | -7.28270 | 120.76220 | 37904 ft | 574 kts | 304° |
| 2026-04-26 17:21 | -7.24718 | 120.69038 | 37906 ft | 573 kts | 304° |
| 2026-04-26 17:22 | -7.21171 | 120.61870 | 37908 ft | 573 kts | 304° |
| 2026-04-26 17:22 | -7.17617 | 120.54693 | 37909 ft | 574 kts | 304° |
| 2026-04-26 17:23 | -7.14076 | 120.47542 | 37910 ft | 571 kts | 304° |
| 2026-04-26 17:23 | -7.10515 | 120.40358 | 37911 ft | 571 kts | 304° |
| 2026-04-26 17:24 | -7.06983 | 120.33237 | 37895 ft | 574 kts | 305° |
| 2026-04-26 17:24 | -7.03433 | 120.26078 | 37888 ft | 572 kts | 305° |
| 2026-04-26 17:25 | -6.99876 | 120.18912 | 37888 ft | 572 kts | 304° |
| 2026-04-26 17:25 | -6.96323 | 120.11755 | 37891 ft | 571 kts | 304° |
| 2026-04-26 17:26 | -6.92761 | 120.04586 | 37894 ft | 573 kts | 305° |
| 2026-04-26 17:26 | -6.89191 | 119.97430 | 37901 ft | 574 kts | 305° |
| 2026-04-26 17:27 | -6.85617 | 119.90284 | 37906 ft | 572 kts | 304° |
| 2026-04-26 17:27 | -6.82040 | 119.83136 | 37908 ft | 574 kts | 304° |
| 2026-04-26 17:28 | -6.78457 | 119.75977 | 37909 ft | 573 kts | 304° |
| 2026-04-26 17:28 | -6.74885 | 119.68842 | 37911 ft | 571 kts | 304° |
| 2026-04-26 17:29 | -6.71912 | 119.62910 | 37911 ft | 573 kts | 304° |
| 2026-04-26 17:29 | -6.67747 | 119.54599 | 37914 ft | 573 kts | 304° |
| 2026-04-26 17:30 | -6.64158 | 119.47440 | 37916 ft | 573 kts | 305° |
| 2026-04-26 17:30 | -6.60582 | 119.40310 | 37916 ft | 572 kts | 305° |
| 2026-04-26 17:31 | -6.57020 | 119.33212 | 37900 ft | 572 kts | 305° |
| 2026-04-26 17:31 | -6.53438 | 119.26078 | 37892 ft | 574 kts | 305° |
| 2026-04-26 17:32 | -6.49851 | 119.18933 | 37894 ft | 570 kts | 305° |
| 2026-04-26 17:32 | -6.46261 | 119.11789 | 37897 ft | 573 kts | 305° |
| 2026-04-26 17:33 | -6.42676 | 119.04658 | 37897 ft | 572 kts | 305° |
| 2026-04-26 17:34 | -6.37308 | 118.93984 | 37901 ft | 572 kts | 305° |
| 2026-04-26 17:34 | -6.33725 | 118.86864 | 37900 ft | 572 kts | 305° |
| 2026-04-26 17:35 | -6.30131 | 118.79722 | 37903 ft | 571 kts | 305° |
| 2026-04-26 17:35 | -6.26549 | 118.72609 | 37906 ft | 573 kts | 305° |
| 2026-04-26 17:36 | -6.24982 | 118.69498 | 37905 ft | 570 kts | 305° |
| 2026-04-26 17:36 | -6.22832 | 118.65231 | 37915 ft | 576 kts | 310° |
| 2026-04-26 17:37 | -6.19173 | 118.57990 | 37912 ft | 590 kts | 309° |
| 2026-04-26 17:37 | -6.15436 | 118.50585 | 37917 ft | 598 kts | 309° |
| 2026-04-26 17:38 | -6.09797 | 118.39397 | 37917 ft | 598 kts | 309° |
| 2026-04-26 17:38 | -6.06041 | 118.31953 | 37881 ft | 602 kts | 309° |
| 2026-04-26 17:39 | -6.02515 | 118.24961 | 37883 ft | 599 kts | 309° |
| 2026-04-26 17:39 | -5.98775 | 118.17551 | 37884 ft | 596 kts | 309° |
| 2026-04-26 17:40 | -5.95664 | 118.11397 | 37886 ft | 598 kts | 309° |
| 2026-04-26 17:40 | -5.91265 | 118.02696 | 37888 ft | 598 kts | 309° |
| 2026-04-26 17:41 | -5.87497 | 117.95245 | 37906 ft | 599 kts | 309° |
| 2026-04-26 17:41 | -5.83715 | 117.87772 | 37911 ft | 602 kts | 309° |
| 2026-04-26 17:42 | -5.79944 | 117.80316 | 37913 ft | 599 kts | 309° |
| 2026-04-26 17:42 | -5.76187 | 117.72897 | 37914 ft | 599 kts | 309° |
| 2026-04-26 17:43 | -5.72396 | 117.65411 | 37915 ft | 598 kts | 309° |
| 2026-04-26 17:43 | -5.68645 | 117.58006 | 37919 ft | 597 kts | 309° |
| 2026-04-26 17:44 | -5.64892 | 117.50605 | 37923 ft | 599 kts | 309° |
| 2026-04-26 17:44 | -5.61103 | 117.43137 | 37924 ft | 600 kts | 309° |
| 2026-04-26 17:45 | -5.57320 | 117.35674 | 37927 ft | 597 kts | 309° |
| 2026-04-26 17:45 | -5.53568 | 117.28283 | 37889 ft | 598 kts | 309° |
| 2026-04-26 17:46 | -5.49804 | 117.20868 | 37891 ft | 597 kts | 309° |
| 2026-04-26 17:46 | -5.46039 | 117.13457 | 37894 ft | 598 kts | 309° |
| 2026-04-26 17:47 | -5.42876 | 117.07233 | 37895 ft | 598 kts | 309° |
| 2026-04-26 17:47 | -5.38480 | 116.98580 | 37897 ft | 596 kts | 309° |
| 2026-04-26 17:48 | -5.34704 | 116.91153 | 37900 ft | 598 kts | 309° |
| 2026-04-26 17:48 | -5.30922 | 116.83717 | 37902 ft | 597 kts | 309° |
| 2026-04-26 17:49 | -5.27163 | 116.76328 | 37904 ft | 595 kts | 309° |
| 2026-04-26 17:49 | -5.23378 | 116.68896 | 37909 ft | 600 kts | 309° |
| 2026-04-26 17:50 | -5.19575 | 116.61425 | 37911 ft | 599 kts | 309° |
| 2026-04-26 17:50 | -5.15781 | 116.53981 | 37914 ft | 602 kts | 309° |
| 2026-04-26 17:51 | -5.12011 | 116.46574 | 37915 ft | 599 kts | 309° |
| 2026-04-26 17:51 | -5.08198 | 116.39098 | 37919 ft | 602 kts | 309° |
| 2026-04-26 17:52 | -5.04420 | 116.31682 | 37880 ft | 598 kts | 309° |
| 2026-04-26 17:52 | -5.00648 | 116.24290 | 37883 ft | 600 kts | 309° |
| 2026-04-26 17:53 | -4.96874 | 116.16888 | 37884 ft | 598 kts | 309° |
| 2026-04-26 17:54 | -4.91167 | 116.05712 | 37888 ft | 598 kts | 309° |
| 2026-04-26 17:54 | -4.87374 | 115.98286 | 37905 ft | 600 kts | 309° |
| 2026-04-26 17:55 | -4.83581 | 115.90859 | 37908 ft | 601 kts | 309° |
| 2026-04-26 17:55 | -4.79793 | 115.83440 | 37909 ft | 598 kts | 309° |
| 2026-04-26 17:56 | -4.75997 | 115.76019 | 37914 ft | 600 kts | 310° |
| 2026-04-26 17:57 | -4.68432 | 115.61227 | 37920 ft | 601 kts | 309° |
| 2026-04-26 17:57 | -4.64655 | 115.53841 | 37922 ft | 600 kts | 309° |
| 2026-04-26 17:58 | -4.57062 | 115.39006 | 37926 ft | 598 kts | 309° |
| 2026-04-26 17:59 | -4.51385 | 115.27921 | 37888 ft | 598 kts | 309° |
| 2026-04-26 17:59 | -4.47572 | 115.20481 | 37892 ft | 600 kts | 310° |
| 2026-04-26 18:00 | -4.43775 | 115.13069 | 37894 ft | 598 kts | 309° |
| 2026-04-26 18:00 | -4.39980 | 115.05664 | 37895 ft | 597 kts | 309° |
| 2026-04-26 18:01 | -4.36191 | 114.98277 | 37898 ft | 600 kts | 309° |
| 2026-04-26 18:01 | -4.32410 | 114.90833 | 37901 ft | 600 kts | 309° |
| 2026-04-26 18:02 | -4.29334 | 114.84563 | 37905 ft | 601 kts | 309° |
| 2026-04-26 18:02 | -4.25044 | 114.75816 | 37907 ft | 600 kts | 308° |
| 2026-04-26 18:03 | -4.21361 | 114.68321 | 37909 ft | 602 kts | 308° |
| 2026-04-26 18:03 | -4.17688 | 114.60846 | 37911 ft | 599 kts | 309° |
| 2026-04-26 18:04 | -4.13996 | 114.53350 | 37914 ft | 602 kts | 308° |
| 2026-04-26 18:05 | -4.08448 | 114.42075 | 37918 ft | 600 kts | 308° |
| 2026-04-26 18:05 | -4.04772 | 114.34614 | 37916 ft | 599 kts | 309° |
| 2026-04-26 18:06 | -4.01091 | 114.27142 | 37880 ft | 598 kts | 308° |
| 2026-04-26 18:06 | -3.97398 | 114.19649 | 37883 ft | 598 kts | 308° |
| 2026-04-26 18:07 | -3.93703 | 114.12161 | 37886 ft | 602 kts | 308° |
| 2026-04-26 18:07 | -3.90028 | 114.04710 | 37890 ft | 601 kts | 308° |
| 2026-04-26 18:08 | -3.86329 | 113.97205 | 37905 ft | 598 kts | 308° |
| 2026-04-26 18:08 | -3.82628 | 113.89710 | 37909 ft | 601 kts | 308° |
| 2026-04-26 18:09 | -3.78931 | 113.82218 | 37911 ft | 601 kts | 308° |
| 2026-04-26 18:09 | -3.75227 | 113.74719 | 37915 ft | 602 kts | 308° |
| 2026-04-26 18:10 | -3.71535 | 113.67240 | 37917 ft | 602 kts | 308° |
| 2026-04-26 18:10 | -3.67818 | 113.59717 | 37920 ft | 602 kts | 308° |
| 2026-04-26 18:11 | -3.64117 | 113.52219 | 37922 ft | 597 kts | 308° |
| 2026-04-26 18:11 | -3.60449 | 113.44800 | 37924 ft | 598 kts | 309° |
| 2026-04-26 18:12 | -3.56748 | 113.37323 | 37927 ft | 603 kts | 308° |
| 2026-04-26 18:12 | -3.53034 | 113.29801 | 37888 ft | 598 kts | 309° |
| 2026-04-26 18:13 | -3.49356 | 113.22372 | 37891 ft | 600 kts | 309° |
| 2026-04-26 18:13 | -3.45648 | 113.14874 | 37893 ft | 600 kts | 309° |
| 2026-04-26 18:14 | -3.41960 | 113.07422 | 37897 ft | 600 kts | 309° |
| 2026-04-26 18:14 | -3.38277 | 112.99981 | 37896 ft | 600 kts | 308° |
| 2026-04-26 18:15 | -3.34578 | 112.92508 | 37899 ft | 599 kts | 309° |
| 2026-04-26 18:15 | -3.30866 | 112.85009 | 37902 ft | 597 kts | 309° |
| 2026-04-26 18:16 | -3.27171 | 112.77552 | 37906 ft | 600 kts | 309° |
| 2026-04-26 18:16 | -3.21633 | 112.66375 | 37911 ft | 601 kts | 309° |
| 2026-04-26 18:17 | -3.17901 | 112.58849 | 37915 ft | 604 kts | 308° |
| 2026-04-26 18:17 | -3.14200 | 112.51376 | 37919 ft | 603 kts | 308° |
| 2026-04-26 18:18 | -3.10486 | 112.43880 | 37920 ft | 598 kts | 308° |
| 2026-04-26 18:18 | -3.06753 | 112.36359 | 37925 ft | 604 kts | 308° |
| 2026-04-26 18:19 | -3.03045 | 112.28905 | 37888 ft | 600 kts | 309° |
| 2026-04-26 18:19 | -2.99218 | 112.21514 | 37890 ft | 596 kts | 310° |
| 2026-04-26 18:20 | -2.95398 | 112.14169 | 37895 ft | 599 kts | 310° |
| 2026-04-26 18:20 | -2.92194 | 112.07998 | 37898 ft | 599 kts | 309° |
| 2026-04-26 18:21 | -2.87709 | 111.99353 | 37918 ft | 600 kts | 309° |
| 2026-04-26 18:21 | -2.83861 | 111.91934 | 37920 ft | 600 kts | 309° |
| 2026-04-26 18:22 | -2.80036 | 111.84554 | 37918 ft | 596 kts | 310° |
| 2026-04-26 18:22 | -2.76195 | 111.77153 | 37918 ft | 600 kts | 310° |
| 2026-04-26 18:23 | -2.72349 | 111.69760 | 37911 ft | 598 kts | 311° |
| 2026-04-26 18:23 | -2.70203 | 111.66229 | 37921 ft | 584 kts | 316° |
| 2026-04-26 18:23 | -2.68006 | 111.62859 | 37921 ft | 584 kts | 317° |
| 2026-04-26 18:24 | -2.63560 | 111.56083 | 37922 ft | 584 kts | 317° |
| 2026-04-26 18:24 | -2.59073 | 111.49241 | 37923 ft | 584 kts | 316° |
| 2026-04-26 18:25 | -2.54622 | 111.42451 | 37933 ft | 586 kts | 317° |
| 2026-04-26 18:25 | -2.50184 | 111.35672 | 37939 ft | 581 kts | 317° |
| 2026-04-26 18:26 | -2.45732 | 111.28881 | 37905 ft | 583 kts | 316° |
| 2026-04-26 18:26 | -2.44013 | 111.26259 | 37912 ft | 585 kts | 317° |
| 2026-04-26 18:27 | -2.39818 | 111.19870 | 37916 ft | 597 kts | 314° |
| 2026-04-26 18:27 | -2.35369 | 111.13088 | 37917 ft | 609 kts | 314° |
| 2026-04-26 18:28 | -2.30823 | 111.06152 | 37917 ft | 617 kts | 314° |
| 2026-04-26 18:28 | -2.26099 | 110.98938 | 37917 ft | 621 kts | 313° |
| 2026-04-26 18:29 | -2.21388 | 110.91756 | 37919 ft | 618 kts | 314° |
| 2026-04-26 18:29 | -2.16617 | 110.84515 | 37921 ft | 620 kts | 313° |
| 2026-04-26 18:30 | -2.11913 | 110.77369 | 37925 ft | 616 kts | 314° |
| 2026-04-26 18:30 | -2.07165 | 110.70172 | 37929 ft | 622 kts | 314° |
| 2026-04-26 18:31 | -2.02437 | 110.62996 | 37929 ft | 620 kts | 314° |
| 2026-04-26 18:31 | -1.97703 | 110.55810 | 37933 ft | 616 kts | 314° |
| 2026-04-26 18:32 | -1.92943 | 110.48593 | 37934 ft | 617 kts | 314° |
| 2026-04-26 18:32 | -1.88227 | 110.41439 | 37936 ft | 617 kts | 314° |
| 2026-04-26 18:33 | -1.83484 | 110.34247 | 37927 ft | 619 kts | 314° |
| 2026-04-26 18:33 | -1.78739 | 110.27052 | 37892 ft | 619 kts | 313° |
| 2026-04-26 18:34 | -1.74012 | 110.19885 | 37894 ft | 617 kts | 314° |
| 2026-04-26 18:34 | -1.69261 | 110.12685 | 37896 ft | 620 kts | 313° |
| 2026-04-26 18:35 | -1.64547 | 110.05535 | 37899 ft | 617 kts | 314° |
| 2026-04-26 18:35 | -1.59829 | 109.98380 | 37901 ft | 618 kts | 313° |
| 2026-04-26 18:36 | -1.55104 | 109.91219 | 37904 ft | 618 kts | 314° |
| 2026-04-26 18:36 | -1.50390 | 109.84068 | 37906 ft | 616 kts | 314° |
| 2026-04-26 18:37 | -1.45660 | 109.76902 | 37912 ft | 619 kts | 314° |
| 2026-04-26 18:37 | -1.40932 | 109.69731 | 37913 ft | 616 kts | 314° |
| 2026-04-26 18:38 | -1.36210 | 109.62579 | 37917 ft | 621 kts | 314° |
| 2026-04-26 18:38 | -1.31479 | 109.55406 | 37921 ft | 619 kts | 314° |
| 2026-04-26 18:39 | -1.26721 | 109.48199 | 37921 ft | 620 kts | 314° |
| 2026-04-26 18:39 | -1.22005 | 109.41052 | 37924 ft | 620 kts | 313° |
| 2026-04-26 18:40 | -1.17269 | 109.33874 | 37912 ft | 620 kts | 314° |
| 2026-04-26 18:40 | -1.12539 | 109.26705 | 37886 ft | 616 kts | 314° |
| 2026-04-26 18:41 | -1.07818 | 109.19554 | 37888 ft | 616 kts | 314° |
| 2026-04-26 18:41 | -1.03063 | 109.12354 | 37891 ft | 618 kts | 314° |
| 2026-04-26 18:42 | -0.98361 | 109.05215 | 37895 ft | 618 kts | 314° |
| 2026-04-26 18:42 | -0.94108 | 108.97685 | 37905 ft | 632 kts | 303° |
| 2026-04-26 18:43 | -0.90519 | 108.89623 | 37902 ft | 636 kts | 302° |
| 2026-04-26 18:43 | -0.86953 | 108.81551 | 37908 ft | 633 kts | 302° |
| 2026-04-26 18:44 | -0.83411 | 108.73537 | 37912 ft | 634 kts | 302° |
| 2026-04-26 18:44 | -0.79841 | 108.65458 | 37915 ft | 632 kts | 301° |
| 2026-04-26 18:45 | -0.76282 | 108.57410 | 37919 ft | 636 kts | 302° |
| 2026-04-26 18:45 | -0.72709 | 108.49323 | 37924 ft | 633 kts | 301° |
| 2026-04-26 18:46 | -0.69160 | 108.41297 | 37926 ft | 633 kts | 302° |
| 2026-04-26 18:46 | -0.65608 | 108.33262 | 37902 ft | 634 kts | 301° |
| 2026-04-26 18:47 | -0.62042 | 108.25194 | 37888 ft | 632 kts | 302° |
| 2026-04-26 18:47 | -0.58480 | 108.17139 | 37891 ft | 635 kts | 302° |
| 2026-04-26 18:48 | -0.54922 | 108.09090 | 37896 ft | 632 kts | 302° |
| 2026-04-26 18:48 | -0.51374 | 108.01073 | 37899 ft | 637 kts | 301° |
| 2026-04-26 18:49 | -0.47788 | 107.92961 | 37902 ft | 635 kts | 302° |
| 2026-04-26 18:49 | -0.44246 | 107.84950 | 37907 ft | 635 kts | 302° |
| 2026-04-26 18:50 | -0.40666 | 107.76856 | 37909 ft | 635 kts | 302° |
| 2026-04-26 18:50 | -0.37105 | 107.68803 | 37913 ft | 635 kts | 302° |
| 2026-04-26 18:51 | -0.33556 | 107.60775 | 37917 ft | 634 kts | 302° |
| 2026-04-26 18:51 | -0.29995 | 107.52730 | 37919 ft | 638 kts | 301° |
| 2026-04-26 18:52 | -0.26429 | 107.44662 | 37925 ft | 635 kts | 302° |
| 2026-04-26 18:52 | -0.22846 | 107.36562 | 37927 ft | 635 kts | 302° |
| 2026-04-26 18:53 | -0.19285 | 107.28509 | 37887 ft | 634 kts | 302° |
| 2026-04-26 18:53 | -0.15734 | 107.20481 | 37889 ft | 634 kts | 302° |
| 2026-04-26 18:54 | -0.12161 | 107.12405 | 37893 ft | 635 kts | 302° |
| 2026-04-26 18:54 | -0.08597 | 107.04346 | 37896 ft | 634 kts | 302° |
| 2026-04-26 18:55 | -0.05046 | 106.96322 | 37900 ft | 637 kts | 301° |
| 2026-04-26 18:55 | -0.01487 | 106.88269 | 37903 ft | 633 kts | 302° |
| 2026-04-26 18:56 | 0.02079 | 106.80212 | 37905 ft | 635 kts | 302° |
| 2026-04-26 18:56 | 0.05644 | 106.72150 | 37909 ft | 635 kts | 302° |
| 2026-04-26 18:57 | 0.08616 | 106.65435 | 37914 ft | 638 kts | 302° |
| 2026-04-26 18:57 | 0.12788 | 106.56004 | 37921 ft | 636 kts | 302° |
| 2026-04-26 18:58 | 0.16351 | 106.47945 | 37925 ft | 636 kts | 302° |
| 2026-04-26 18:58 | 0.19919 | 106.39874 | 37927 ft | 633 kts | 302° |
| 2026-04-26 18:59 | 0.23486 | 106.31812 | 37887 ft | 634 kts | 302° |
| 2026-04-26 18:59 | 0.27031 | 106.23798 | 37890 ft | 636 kts | 302° |
| 2026-04-26 19:00 | 0.30610 | 106.15707 | 37894 ft | 637 kts | 302° |
| 2026-04-26 19:00 | 0.34187 | 106.07619 | 37897 ft | 636 kts | 302° |
| 2026-04-26 19:01 | 0.37756 | 105.99546 | 37900 ft | 636 kts | 302° |
| 2026-04-26 19:01 | 0.41301 | 105.91529 | 37904 ft | 633 kts | 302° |
| 2026-04-26 19:02 | 0.44861 | 105.83480 | 37906 ft | 634 kts | 302° |
| 2026-04-26 19:02 | 0.45232 | 105.82642 | 37655 ft | 634 kts | 302° |
| 2026-04-26 19:02 | 0.46260 | 105.80333 | 37339 ft | 513 kts | 292° |
| 2026-04-26 19:03 | 0.48101 | 105.76173 | 38355 ft | 474 kts | 293° |
| 2026-04-26 19:03 | 0.49406 | 105.73220 | 38307 ft | 463 kts | 293° |
| 2026-04-26 19:03 | 0.50691 | 105.70315 | 38010 ft | 453 kts | 293° |
| 2026-04-26 19:03 | 0.51948 | 105.67471 | 37724 ft | 448 kts | 293° |
| 2026-04-26 19:04 | 0.53217 | 105.64597 | 37589 ft | 459 kts | 294° |
| 2026-04-26 19:04 | 0.54520 | 105.61649 | 37571 ft | 467 kts | 294° |
| 2026-04-26 19:04 | 0.57186 | 105.55617 | 37543 ft | 485 kts | 294° |
| 2026-04-26 19:05 | 0.61326 | 105.46249 | 37540 ft | 490 kts | 294° |
| 2026-04-26 19:06 | 0.63952 | 105.40015 | 37357 ft | 481 kts | 289° |
| 2026-04-26 19:06 | 0.64954 | 105.36840 | 36567 ft | 482 kts | 287° |
| 2026-04-26 19:06 | 0.65938 | 105.33605 | 35326 ft | 492 kts | 287° |
| 2026-04-26 19:06 | 0.66929 | 105.30343 | 34035 ft | 501 kts | 287° |
| 2026-04-26 19:07 | 0.67948 | 105.26990 | 32831 ft | 507 kts | 287° |
| 2026-04-26 19:07 | 0.68980 | 105.23601 | 31857 ft | 510 kts | 287° |
| 2026-04-26 19:07 | 0.70009 | 105.20221 | 31001 ft | 510 kts | 287° |
| 2026-04-26 19:07 | 0.71034 | 105.16858 | 30368 ft | 505 kts | 287° |
| 2026-04-26 19:08 | 0.72039 | 105.13560 | 29871 ft | 498 kts | 287° |
| 2026-04-26 19:08 | 0.73043 | 105.10265 | 29318 ft | 492 kts | 287° |
| 2026-04-26 19:08 | 0.74029 | 105.07033 | 28734 ft | 487 kts | 288° |
| 2026-04-26 19:08 | 0.75025 | 105.03766 | 28125 ft | 483 kts | 288° |
| 2026-04-26 19:09 | 0.76005 | 105.00554 | 27506 ft | 479 kts | 288° |
| 2026-04-26 19:09 | 0.76968 | 104.97395 | 26902 ft | 476 kts | 288° |
| 2026-04-26 19:09 | 0.77923 | 104.94267 | 26310 ft | 472 kts | 288° |
| 2026-04-26 19:09 | 0.78878 | 104.91136 | 25709 ft | 469 kts | 288° |
| 2026-04-26 19:10 | 0.79813 | 104.88071 | 25139 ft | 464 kts | 288° |
| 2026-04-26 19:10 | 0.80755 | 104.84985 | 24561 ft | 460 kts | 288° |
| 2026-04-26 19:10 | 0.81686 | 104.81931 | 23975 ft | 456 kts | 288° |
| 2026-04-26 19:10 | 0.82595 | 104.78954 | 23385 ft | 453 kts | 288° |
| 2026-04-26 19:11 | 0.83511 | 104.75950 | 22772 ft | 450 kts | 288° |
| 2026-04-26 19:11 | 0.84422 | 104.72965 | 22155 ft | 447 kts | 288° |
| 2026-04-26 19:11 | 0.85313 | 104.70041 | 21569 ft | 444 kts | 288° |
| 2026-04-26 19:11 | 0.86206 | 104.67114 | 21016 ft | 439 kts | 288° |
| 2026-04-26 19:12 | 0.87089 | 104.64222 | 20479 ft | 435 kts | 288° |
| 2026-04-26 19:12 | 0.87974 | 104.61320 | 19910 ft | 431 kts | 288° |
| 2026-04-26 19:12 | 0.88836 | 104.58493 | 19061 ft | 424 kts | 288° |
| 2026-04-26 19:12 | 0.89687 | 104.55702 | 18071 ft | 419 kts | 288° |
| 2026-04-26 19:13 | 0.90548 | 104.52882 | 17081 ft | 415 kts | 288° |
| 2026-04-26 19:13 | 0.91383 | 104.50143 | 16139 ft | 409 kts | 288° |
| 2026-04-26 19:13 | 0.92209 | 104.47435 | 15250 ft | 403 kts | 288° |
| 2026-04-26 19:13 | 0.93013 | 104.44799 | 14363 ft | 397 kts | 288° |
| 2026-04-26 19:14 | 0.93808 | 104.42191 | 13424 ft | 393 kts | 288° |
| 2026-04-26 19:14 | 0.94590 | 104.39628 | 12520 ft | 387 kts | 288° |
| 2026-04-26 19:14 | 0.95370 | 104.37070 | 11632 ft | 381 kts | 288° |
| 2026-04-26 19:14 | 0.95879 | 104.35400 | 11148 ft | 374 kts | 288° |
| 2026-04-26 19:15 | 0.96859 | 104.32185 | 10602 ft | 350 kts | 288° |
| 2026-04-26 19:15 | 0.97548 | 104.29925 | 10308 ft | 331 kts | 288° |
| 2026-04-26 19:15 | 0.98204 | 104.27773 | 10107 ft | 312 kts | 288° |
| 2026-04-26 19:15 | 0.98820 | 104.25751 | 9952 ft | 296 kts | 288° |
| 2026-04-26 19:16 | 0.99411 | 104.23815 | 9596 ft | 296 kts | 288° |
| 2026-04-26 19:16 | 1.00010 | 104.21854 | 9191 ft | 291 kts | 288° |
| 2026-04-26 19:16 | 1.00592 | 104.19943 | 8894 ft | 282 kts | 289° |
| 2026-04-26 19:16 | 1.01151 | 104.18111 | 8603 ft | 274 kts | 288° |
| 2026-04-26 19:17 | 1.01703 | 104.16302 | 8296 ft | 267 kts | 288° |
| 2026-04-26 19:17 | 1.02239 | 104.14543 | 7984 ft | 262 kts | 289° |
| 2026-04-26 19:17 | 1.02772 | 104.12795 | 7680 ft | 262 kts | 288° |
| 2026-04-26 19:17 | 1.03302 | 104.11057 | 7375 ft | 261 kts | 289° |
| 2026-04-26 19:18 | 1.03826 | 104.09338 | 7056 ft | 256 kts | 289° |
| 2026-04-26 19:18 | 1.04338 | 104.07661 | 6755 ft | 251 kts | 288° |
| 2026-04-26 19:18 | 1.04842 | 104.06008 | 6465 ft | 245 kts | 288° |
| 2026-04-26 19:18 | 1.05337 | 104.04385 | 6182 ft | 241 kts | 288° |
| 2026-04-26 19:19 | 1.05820 | 104.02796 | 5898 ft | 236 kts | 288° |
| 2026-04-26 19:19 | 1.06292 | 104.01249 | 5622 ft | 232 kts | 288° |
| 2026-04-26 19:19 | 1.06761 | 103.99708 | 5342 ft | 229 kts | 288° |
| 2026-04-26 19:19 | 1.07221 | 103.98201 | 5073 ft | 225 kts | 289° |
| 2026-04-26 19:20 | 1.07671 | 103.96725 | 4818 ft | 221 kts | 288° |
| 2026-04-26 19:20 | 1.07971 | 103.95741 | 4641 ft | 219 kts | 289° |
| 2026-04-26 19:20 | 1.08559 | 103.93813 | 4297 ft | 215 kts | 289° |
| 2026-04-26 19:20 | 1.08988 | 103.92403 | 4055 ft | 212 kts | 289° |
| 2026-04-26 19:21 | 1.09421 | 103.91009 | 3817 ft | 210 kts | 293° |
| 2026-04-26 19:21 | 1.10183 | 103.89784 | 3560 ft | 206 kts | 317° |
| 2026-04-26 19:21 | 1.11353 | 103.88977 | 3315 ft | 203 kts | 338° |
| 2026-04-26 19:21 | 1.12718 | 103.88761 | 3076 ft | 196 kts | 8° |
| 2026-04-26 19:22 | 1.14031 | 103.89072 | 2997 ft | 194 kts | 19° |
| 2026-04-26 19:22 | 1.15302 | 103.89542 | 2991 ft | 194 kts | 22° |
| 2026-04-26 19:22 | 1.16559 | 103.90058 | 2993 ft | 193 kts | 24° |
| 2026-04-26 19:22 | 1.17815 | 103.90585 | 2991 ft | 194 kts | 24° |
| 2026-04-26 19:23 | 1.19058 | 103.91109 | 2992 ft | 194 kts | 24° |
| 2026-04-26 19:23 | 1.20293 | 103.91629 | 2987 ft | 192 kts | 24° |
| 2026-04-26 19:23 | 1.21535 | 103.92150 | 2732 ft | 189 kts | 24° |
| 2026-04-26 19:23 | 1.22732 | 103.92652 | 2483 ft | 181 kts | 24° |
| 2026-04-26 19:24 | 1.23897 | 103.93141 | 2250 ft | 182 kts | 24° |
| 2026-04-26 19:24 | 1.25024 | 103.93613 | 2016 ft | 170 kts | 24° |
| 2026-04-26 19:24 | 1.27117 | 103.94492 | 1604 ft | 158 kts | 24° |
| 2026-04-26 19:25 | 1.28130 | 103.94916 | 1394 ft | 148 kts | 24° |
| 2026-04-26 19:25 | 1.28751 | 103.95177 | 1272 ft | 143 kts | 24° |
| 2026-04-26 19:25 | 1.29971 | 103.95689 | 1023 ft | 140 kts | 24° |
| 2026-04-26 19:25 | 1.30872 | 103.96067 | 854 ft | 140 kts | 23° |
| 2026-04-26 19:26 | 1.31775 | 103.96448 | 663 ft | 140 kts | 23° |
| 2026-04-26 19:26 | 1.32698 | 103.96821 | 496 ft | 141 kts | 22° |
| 2026-04-26 19:26 | 1.33607 | 103.97205 | 322 ft | 141 kts | 23° |
| 2026-04-26 19:26 | 1.34526 | 103.97592 | 143 ft | 142 kts | 22° |
| 2026-04-26 19:27 | 1.35445 | 103.97977 | 37 ft | 137 kts | 22° |
| 2026-04-26 19:27 | 1.36210 | 103.98300 | 35 ft | 96 kts | 22° |
| 2026-04-26 19:27 | 1.36714 | 103.98515 | 35 ft | 58 kts | 23° |
| 2026-04-26 19:27 | 1.36977 | 103.98630 | 35 ft | 31 kts | 37° |
| 2026-04-26 19:28 | 1.37075 | 103.98737 | 35 ft | 13 kts | 52° |
| 2026-04-26 19:28 | 1.37102 | 103.98817 | 35 ft | 12 kts | 117° |
| 2026-04-26 19:28 | 1.37026 | 103.98838 | 35 ft | 8 kts | 198° |
| 2026-04-26 19:28 | 1.36970 | 103.98817 | 35 ft | 8 kts | 202° |
| 2026-04-26 19:29 | 1.36910 | 103.98792 | 35 ft | 9 kts | 204° |
| 2026-04-26 19:29 | 1.36847 | 103.98764 | 35 ft | 10 kts | 202° |
| 2026-04-26 19:29 | 1.36780 | 103.98737 | 35 ft | 10 kts | 202° |
| 2026-04-26 19:29 | 1.36711 | 103.98708 | 35 ft | 10 kts | 203° |
| 2026-04-26 19:30 | 1.36640 | 103.98678 | 35 ft | 11 kts | 203° |
| 2026-04-26 19:30 | 1.36567 | 103.98646 | 35 ft | 11 kts | 203° |
| 2026-04-26 19:30 | 1.36492 | 103.98615 | 35 ft | 10 kts | 203° |
| 2026-04-26 19:30 | 1.36463 | 103.98605 | 35 ft | 5 kts | 186° |
| 2026-04-26 19:31 | 1.36426 | 103.98644 | 35 ft | 6 kts | 115° |
| 2026-04-26 19:31 | 1.36406 | 103.98690 | 35 ft | 7 kts | 113° |
| 2026-04-26 19:31 | 1.36376 | 103.98735 | 35 ft | 8 kts | 145° |
| 2026-04-26 19:31 | 1.36340 | 103.98761 | 35 ft | 6 kts | 129° |
| 2026-04-26 19:32 | 1.36318 | 103.98801 | 35 ft | 6 kts | 116° |
| 2026-04-26 19:32 | 1.36311 | 103.98816 | 35 ft | 0 kts | 116° |